<?xml version="1.0" encoding="UTF-8"?>
<gpx version="1.1" creator="2bulu-scraper" xmlns="http://www.topografix.com/GPX/1/1">
  <metadata><name>泸州纳溪区山画山环线</name><desc>source: 2bulu.com trackId=78650740; exported 2026-09-01T14:26:34.598Z</desc>
    <bounds minlat="28.6026107" minlon="105.4559413" maxlat="28.6150846" maxlon="105.4781648"/>
    <link href="https://www.2bulu.com/track/t-DiwGBeVsxAXp%252FR2KBg5Tzw%253D%253D.htm"><text>2bulu 源页面</text></link>
  </metadata>
  <wpt lat="28.6121742" lon="105.4654451"><ele>395</ele><name>
        </name></wpt>
  <wpt lat="28.6119835" lon="105.4667067"><ele>394</ele><name>
        </name></wpt>
  <wpt lat="28.6083787" lon="105.4732137"><ele>429</ele><name>
        </name></wpt>
  <wpt lat="28.6108588" lon="105.4722258"><ele>465</ele><name>
        </name></wpt>
  <wpt lat="28.6063211" lon="105.4756247"><ele>473</ele><name>
        </name></wpt>
  <wpt lat="28.6062925" lon="105.4756353"><ele>475</ele><name>
        </name></wpt>
  <wpt lat="28.6062678" lon="105.4760711"><ele>488</ele><name>
        </name></wpt>
  <wpt lat="28.6051253" lon="105.4770852"><ele>504</ele><name>
        </name></wpt>
  <wpt lat="28.6048151" lon="105.4772025"><ele>552</ele><name>
        </name></wpt>
  <wpt lat="28.6033634" lon="105.4753378"><ele>595</ele><name>
        </name></wpt>
  <wpt lat="28.6062927" lon="105.4695937"><ele>540</ele><name>
        </name></wpt>
  <wpt lat="28.6074122" lon="105.4701044"><ele>516</ele><name>
        </name></wpt>
  <wpt lat="28.6085746" lon="105.4686741"><ele>450</ele><name>
        </name></wpt>
  <wpt lat="28.6094464" lon="105.4662289"><ele>451</ele><name>
        </name></wpt>
  <wpt lat="28.6112896" lon="105.4672908"><ele>395</ele><name>
        </name></wpt>
  <wpt lat="28.6114023" lon="105.4673888"><ele>392</ele><name>
        </name></wpt>
  <wpt lat="28.6125125" lon="105.4669087"><ele>409</ele><name>
        </name></wpt>
  <wpt lat="28.6125125" lon="105.4669087"><ele>409</ele><name>
        </name></wpt>
  <wpt lat="28.6140222" lon="105.466247"><ele>461</ele><name>
        </name></wpt>
  <trk><name>泸州纳溪区山画山环线</name>
      <trkseg>
        <trkpt lat="28.6147655" lon="105.463191"><ele>418.79</ele><time>2026-01-30T19:24:12.000Z</time></trkpt>
        <trkpt lat="28.6147126" lon="105.4632554"><ele>418.79</ele><time>2026-01-30T19:24:56.000Z</time></trkpt>
        <trkpt lat="28.6146169" lon="105.4632758"><ele>415.04</ele><time>2026-01-30T19:25:08.000Z</time></trkpt>
        <trkpt lat="28.6145139" lon="105.4632617"><ele>412.68</ele><time>2026-01-30T19:25:18.000Z</time></trkpt>
        <trkpt lat="28.6143996" lon="105.4632444"><ele>410.91</ele><time>2026-01-30T19:25:42.000Z</time></trkpt>
        <trkpt lat="28.6143081" lon="105.4631909"><ele>408.84</ele><time>2026-01-30T19:25:54.000Z</time></trkpt>
        <trkpt lat="28.6142886" lon="105.463177"><ele>407.14</ele><time>2026-01-30T19:25:56.000Z</time></trkpt>
        <trkpt lat="28.6142145" lon="105.4631631"><ele>406.15</ele><time>2026-01-30T19:27:52.000Z</time></trkpt>
        <trkpt lat="28.6141267" lon="105.4631319"><ele>403.28</ele><time>2026-01-30T19:28:02.000Z</time></trkpt>
        <trkpt lat="28.614034" lon="105.4631213"><ele>401.35</ele><time>2026-01-30T19:28:18.000Z</time></trkpt>
        <trkpt lat="28.6139375" lon="105.4631031"><ele>402.35</ele><time>2026-01-30T19:28:28.000Z</time></trkpt>
        <trkpt lat="28.6138428" lon="105.4631259"><ele>403.5</ele><time>2026-01-30T19:28:40.000Z</time></trkpt>
        <trkpt lat="28.613817" lon="105.4632131"><ele>405.93</ele><time>2026-01-30T19:28:58.000Z</time></trkpt>
        <trkpt lat="28.6138033" lon="105.4631572"><ele>407.69</ele><time>2026-01-30T19:29:16.000Z</time></trkpt>
        <trkpt lat="28.6137921" lon="105.4631267"><ele>408.06</ele><time>2026-01-30T19:29:20.000Z</time></trkpt>
        <trkpt lat="28.6138574" lon="105.4630911"><ele>408.36</ele><time>2026-01-30T19:29:30.000Z</time></trkpt>
        <trkpt lat="28.6139688" lon="105.4630804"><ele>408.05</ele><time>2026-01-30T19:29:42.000Z</time></trkpt>
        <trkpt lat="28.6140745" lon="105.4630984"><ele>407.91</ele><time>2026-01-30T19:29:52.000Z</time></trkpt>
        <trkpt lat="28.6140445" lon="105.4630497"><ele>406.91</ele><time>2026-01-30T19:30:12.000Z</time></trkpt>
        <trkpt lat="28.6139473" lon="105.4630095"><ele>405.4</ele><time>2026-01-30T19:30:22.000Z</time></trkpt>
        <trkpt lat="28.6138391" lon="105.4629911"><ele>404.15</ele><time>2026-01-30T19:30:30.000Z</time></trkpt>
        <trkpt lat="28.6137193" lon="105.4629804"><ele>403.12</ele><time>2026-01-30T19:30:40.000Z</time></trkpt>
        <trkpt lat="28.6136059" lon="105.4629962"><ele>402.35</ele><time>2026-01-30T19:30:50.000Z</time></trkpt>
        <trkpt lat="28.6135221" lon="105.4630313"><ele>402.32</ele><time>2026-01-30T19:31:00.000Z</time></trkpt>
        <trkpt lat="28.6134532" lon="105.4630981"><ele>402.93</ele><time>2026-01-30T19:31:18.000Z</time></trkpt>
        <trkpt lat="28.613384" lon="105.4631678"><ele>402.26</ele><time>2026-01-30T19:31:32.000Z</time></trkpt>
        <trkpt lat="28.6133823" lon="105.4632689"><ele>402.67</ele><time>2026-01-30T19:32:22.000Z</time></trkpt>
        <trkpt lat="28.613463" lon="105.463332"><ele>401.78</ele><time>2026-01-30T19:32:34.000Z</time></trkpt>
        <trkpt lat="28.6135527" lon="105.4634061"><ele>401.74</ele><time>2026-01-30T19:32:46.000Z</time></trkpt>
        <trkpt lat="28.6136083" lon="105.4634515"><ele>401.99</ele><time>2026-01-30T19:32:52.000Z</time></trkpt>
        <trkpt lat="28.6136363" lon="105.4635354"><ele>402.1</ele><time>2026-01-30T19:33:20.000Z</time></trkpt>
        <trkpt lat="28.6136548" lon="105.4636391"><ele>401.59</ele><time>2026-01-30T19:33:28.000Z</time></trkpt>
        <trkpt lat="28.6136348" lon="105.4637469"><ele>401.8</ele><time>2026-01-30T19:33:36.000Z</time></trkpt>
        <trkpt lat="28.6135615" lon="105.463818"><ele>402.09</ele><time>2026-01-30T19:33:46.000Z</time></trkpt>
        <trkpt lat="28.6134681" lon="105.4638621"><ele>402.17</ele><time>2026-01-30T19:33:56.000Z</time></trkpt>
        <trkpt lat="28.6133674" lon="105.46387"><ele>402.04</ele><time>2026-01-30T19:34:08.000Z</time></trkpt>
        <trkpt lat="28.6132736" lon="105.4639021"><ele>400.96</ele><time>2026-01-30T19:34:16.000Z</time></trkpt>
        <trkpt lat="28.6132405" lon="105.4639972"><ele>400.8</ele><time>2026-01-30T19:34:26.000Z</time></trkpt>
        <trkpt lat="28.6132843" lon="105.4641046"><ele>400.84</ele><time>2026-01-30T19:34:36.000Z</time></trkpt>
        <trkpt lat="28.6133554" lon="105.4642004"><ele>400.24</ele><time>2026-01-30T19:34:46.000Z</time></trkpt>
        <trkpt lat="28.6134275" lon="105.4642982"><ele>400.26</ele><time>2026-01-30T19:34:56.000Z</time></trkpt>
        <trkpt lat="28.6134609" lon="105.4644137"><ele>400.77</ele><time>2026-01-30T19:35:06.000Z</time></trkpt>
        <trkpt lat="28.6134881" lon="105.4645288"><ele>401.47</ele><time>2026-01-30T19:35:16.000Z</time></trkpt>
        <trkpt lat="28.6134529" lon="105.4646215"><ele>401.82</ele><time>2026-01-30T19:35:28.000Z</time></trkpt>
        <trkpt lat="28.6133677" lon="105.4646524"><ele>402.21</ele><time>2026-01-30T19:35:44.000Z</time></trkpt>
        <trkpt lat="28.6132602" lon="105.4646594"><ele>402.29</ele><time>2026-01-30T19:36:28.000Z</time></trkpt>
        <trkpt lat="28.6131919" lon="105.4646259"><ele>402.59</ele><time>2026-01-30T19:36:34.000Z</time></trkpt>
        <trkpt lat="28.6131036" lon="105.4645841"><ele>402.37</ele><time>2026-01-30T19:36:50.000Z</time></trkpt>
        <trkpt lat="28.6130147" lon="105.4645954"><ele>401.6</ele><time>2026-01-30T19:37:02.000Z</time></trkpt>
        <trkpt lat="28.6129307" lon="105.464639"><ele>401.43</ele><time>2026-01-30T19:37:12.000Z</time></trkpt>
        <trkpt lat="28.6128404" lon="105.4647053"><ele>401.18</ele><time>2026-01-30T19:37:22.000Z</time></trkpt>
        <trkpt lat="28.6127756" lon="105.4648023"><ele>401.32</ele><time>2026-01-30T19:37:32.000Z</time></trkpt>
        <trkpt lat="28.6127771" lon="105.4649113"><ele>401.29</ele><time>2026-01-30T19:37:42.000Z</time></trkpt>
        <trkpt lat="28.612807" lon="105.465029"><ele>401.22</ele><time>2026-01-30T19:37:52.000Z</time></trkpt>
        <trkpt lat="28.6128489" lon="105.4651422"><ele>401.32</ele><time>2026-01-30T19:38:02.000Z</time></trkpt>
        <trkpt lat="28.6128945" lon="105.465244"><ele>401.51</ele><time>2026-01-30T19:38:14.000Z</time></trkpt>
        <trkpt lat="28.6129088" lon="105.4653473"><ele>401.65</ele><time>2026-01-30T19:38:24.000Z</time></trkpt>
        <trkpt lat="28.6129133" lon="105.465451"><ele>401.6</ele><time>2026-01-30T19:38:34.000Z</time></trkpt>
        <trkpt lat="28.6129003" lon="105.4655551"><ele>401.19</ele><time>2026-01-30T19:38:44.000Z</time></trkpt>
        <trkpt lat="28.6128272" lon="105.4655932"><ele>400.25</ele><time>2026-01-30T19:38:54.000Z</time></trkpt>
        <trkpt lat="28.6127403" lon="105.4656349"><ele>399.13</ele><time>2026-01-30T19:39:02.000Z</time></trkpt>
        <trkpt lat="28.6126324" lon="105.465614"><ele>398.12</ele><time>2026-01-30T19:39:13.000Z</time></trkpt>
        <trkpt lat="28.6125305" lon="105.4655582"><ele>397.31</ele><time>2026-01-30T19:39:23.000Z</time></trkpt>
        <trkpt lat="28.6124407" lon="105.4654796"><ele>396.39</ele><time>2026-01-30T19:39:33.000Z</time></trkpt>
        <trkpt lat="28.612353" lon="105.4654215"><ele>395.74</ele><time>2026-01-30T19:39:43.000Z</time></trkpt>
        <trkpt lat="28.6122541" lon="105.4653988"><ele>395.52</ele><time>2026-01-30T19:39:55.000Z</time></trkpt>
        <trkpt lat="28.6121742" lon="105.4654451"><ele>395.39</ele><time>2026-01-30T19:40:05.000Z</time></trkpt>
        <trkpt lat="28.6121059" lon="105.4655396"><ele>395.75</ele><time>2026-01-30T19:40:21.000Z</time></trkpt>
        <trkpt lat="28.6120635" lon="105.465665"><ele>396.67</ele><time>2026-01-30T19:40:31.000Z</time></trkpt>
        <trkpt lat="28.6120657" lon="105.4657839"><ele>396.71</ele><time>2026-01-30T19:40:41.000Z</time></trkpt>
        <trkpt lat="28.6121098" lon="105.4658964"><ele>397.75</ele><time>2026-01-30T19:40:55.000Z</time></trkpt>
        <trkpt lat="28.6121462" lon="105.4660014"><ele>397.29</ele><time>2026-01-30T19:41:05.000Z</time></trkpt>
        <trkpt lat="28.6121394" lon="105.4661039"><ele>396.5</ele><time>2026-01-30T19:41:15.000Z</time></trkpt>
        <trkpt lat="28.6120908" lon="105.4661932"><ele>395.88</ele><time>2026-01-30T19:41:25.000Z</time></trkpt>
        <trkpt lat="28.6120229" lon="105.4662843"><ele>395.34</ele><time>2026-01-30T19:41:37.000Z</time></trkpt>
        <trkpt lat="28.6119811" lon="105.4663854"><ele>395.43</ele><time>2026-01-30T19:41:49.000Z</time></trkpt>
        <trkpt lat="28.6119856" lon="105.4664885"><ele>395.42</ele><time>2026-01-30T19:42:01.000Z</time></trkpt>
        <trkpt lat="28.6120108" lon="105.466513"><ele>395.03</ele><time>2026-01-30T19:42:05.000Z</time></trkpt>
        <trkpt lat="28.6120154" lon="105.4666007"><ele>394.22</ele><time>2026-01-30T19:42:17.000Z</time></trkpt>
        <trkpt lat="28.6119835" lon="105.4667067"><ele>393.75</ele><time>2026-01-30T19:42:27.000Z</time></trkpt>
        <trkpt lat="28.611924" lon="105.466816"><ele>393.81</ele><time>2026-01-30T19:42:39.000Z</time></trkpt>
        <trkpt lat="28.6118467" lon="105.4669065"><ele>393.83</ele><time>2026-01-30T19:42:49.000Z</time></trkpt>
        <trkpt lat="28.6117754" lon="105.4669873"><ele>394.1</ele><time>2026-01-30T19:42:59.000Z</time></trkpt>
        <trkpt lat="28.6117284" lon="105.4670859"><ele>394.34</ele><time>2026-01-30T19:43:09.000Z</time></trkpt>
        <trkpt lat="28.6116993" lon="105.4671943"><ele>394.92</ele><time>2026-01-30T19:43:19.000Z</time></trkpt>
        <trkpt lat="28.6116462" lon="105.4672922"><ele>395.64</ele><time>2026-01-30T19:43:29.000Z</time></trkpt>
        <trkpt lat="28.611585" lon="105.4673838"><ele>396.14</ele><time>2026-01-30T19:43:39.000Z</time></trkpt>
        <trkpt lat="28.6115491" lon="105.4674913"><ele>396.43</ele><time>2026-01-30T19:43:49.000Z</time></trkpt>
        <trkpt lat="28.6115593" lon="105.4675963"><ele>397.11</ele><time>2026-01-30T19:43:59.000Z</time></trkpt>
        <trkpt lat="28.6115841" lon="105.4677069"><ele>397.58</ele><time>2026-01-30T19:44:09.000Z</time></trkpt>
        <trkpt lat="28.6115919" lon="105.4678263"><ele>397.25</ele><time>2026-01-30T19:44:19.000Z</time></trkpt>
        <trkpt lat="28.6115431" lon="105.4679131"><ele>396.33</ele><time>2026-01-30T19:44:29.000Z</time></trkpt>
        <trkpt lat="28.6114533" lon="105.4679196"><ele>395.41</ele><time>2026-01-30T19:44:39.000Z</time></trkpt>
        <trkpt lat="28.6113455" lon="105.4679113"><ele>394.95</ele><time>2026-01-30T19:44:49.000Z</time></trkpt>
        <trkpt lat="28.6112397" lon="105.4679307"><ele>395.65</ele><time>2026-01-30T19:44:59.000Z</time></trkpt>
        <trkpt lat="28.6111559" lon="105.4679931"><ele>396.59</ele><time>2026-01-30T19:45:09.000Z</time></trkpt>
        <trkpt lat="28.6110917" lon="105.4680885"><ele>397.32</ele><time>2026-01-30T19:45:19.000Z</time></trkpt>
        <trkpt lat="28.6110336" lon="105.468194"><ele>397.86</ele><time>2026-01-30T19:45:29.000Z</time></trkpt>
        <trkpt lat="28.6109795" lon="105.4682893"><ele>397.88</ele><time>2026-01-30T19:45:37.000Z</time></trkpt>
        <trkpt lat="28.6109356" lon="105.4683827"><ele>397.77</ele><time>2026-01-30T19:45:47.000Z</time></trkpt>
        <trkpt lat="28.6108837" lon="105.468479"><ele>398.19</ele><time>2026-01-30T19:45:57.000Z</time></trkpt>
        <trkpt lat="28.6108267" lon="105.4685786"><ele>398.79</ele><time>2026-01-30T19:46:07.000Z</time></trkpt>
        <trkpt lat="28.6107499" lon="105.4686604"><ele>399.5</ele><time>2026-01-30T19:46:17.000Z</time></trkpt>
        <trkpt lat="28.6106624" lon="105.4687205"><ele>399.53</ele><time>2026-01-30T19:46:27.000Z</time></trkpt>
        <trkpt lat="28.6105678" lon="105.4687829"><ele>399.57</ele><time>2026-01-30T19:46:39.000Z</time></trkpt>
        <trkpt lat="28.6105116" lon="105.4688752"><ele>398.52</ele><time>2026-01-30T19:46:49.000Z</time></trkpt>
        <trkpt lat="28.6104772" lon="105.4689785"><ele>398.37</ele><time>2026-01-30T19:46:59.000Z</time></trkpt>
        <trkpt lat="28.6104164" lon="105.4690524"><ele>398.13</ele><time>2026-01-30T19:47:09.000Z</time></trkpt>
        <trkpt lat="28.6103329" lon="105.469088"><ele>397.82</ele><time>2026-01-30T19:47:21.000Z</time></trkpt>
        <trkpt lat="28.6102492" lon="105.4691458"><ele>397.2</ele><time>2026-01-30T19:47:33.000Z</time></trkpt>
        <trkpt lat="28.6101692" lon="105.4692193"><ele>397.55</ele><time>2026-01-30T19:47:43.000Z</time></trkpt>
        <trkpt lat="28.6100855" lon="105.4692693"><ele>397.61</ele><time>2026-01-30T19:47:53.000Z</time></trkpt>
        <trkpt lat="28.6099984" lon="105.4693082"><ele>397.29</ele><time>2026-01-30T19:48:03.000Z</time></trkpt>
        <trkpt lat="28.6099086" lon="105.4693509"><ele>397.01</ele><time>2026-01-30T19:48:15.000Z</time></trkpt>
        <trkpt lat="28.6098509" lon="105.4694321"><ele>396.79</ele><time>2026-01-30T19:48:25.000Z</time></trkpt>
        <trkpt lat="28.6098107" lon="105.4695291"><ele>397.05</ele><time>2026-01-30T19:48:37.000Z</time></trkpt>
        <trkpt lat="28.6097448" lon="105.4695964"><ele>397.07</ele><time>2026-01-30T19:48:53.000Z</time></trkpt>
        <trkpt lat="28.6096607" lon="105.4695848"><ele>395.84</ele><time>2026-01-30T19:49:03.000Z</time></trkpt>
        <trkpt lat="28.6095629" lon="105.4695602"><ele>393.85</ele><time>2026-01-30T19:49:13.000Z</time></trkpt>
        <trkpt lat="28.6094719" lon="105.4695841"><ele>393.47</ele><time>2026-01-30T19:49:25.000Z</time></trkpt>
        <trkpt lat="28.6093866" lon="105.4696314"><ele>394.78</ele><time>2026-01-30T19:49:35.000Z</time></trkpt>
        <trkpt lat="28.6093191" lon="105.4697085"><ele>395.57</ele><time>2026-01-30T19:49:45.000Z</time></trkpt>
        <trkpt lat="28.6092625" lon="105.469795"><ele>395.43</ele><time>2026-01-30T19:49:57.000Z</time></trkpt>
        <trkpt lat="28.609258" lon="105.4698409"><ele>395.92</ele><time>2026-01-30T19:50:01.000Z</time></trkpt>
        <trkpt lat="28.6092767" lon="105.4699369"><ele>396.4</ele><time>2026-01-30T19:55:25.000Z</time></trkpt>
        <trkpt lat="28.6092323" lon="105.470029"><ele>396.8</ele><time>2026-01-30T19:55:35.000Z</time></trkpt>
        <trkpt lat="28.6091883" lon="105.4701422"><ele>397.81</ele><time>2026-01-30T19:55:45.000Z</time></trkpt>
        <trkpt lat="28.6091319" lon="105.4702487"><ele>398.55</ele><time>2026-01-30T19:55:55.000Z</time></trkpt>
        <trkpt lat="28.6090723" lon="105.4703435"><ele>398.47</ele><time>2026-01-30T19:56:05.000Z</time></trkpt>
        <trkpt lat="28.6090088" lon="105.4704385"><ele>397.82</ele><time>2026-01-30T19:56:15.000Z</time></trkpt>
        <trkpt lat="28.6089384" lon="105.4705145"><ele>397.97</ele><time>2026-01-30T19:56:25.000Z</time></trkpt>
        <trkpt lat="28.6088711" lon="105.4705895"><ele>398.53</ele><time>2026-01-30T19:56:35.000Z</time></trkpt>
        <trkpt lat="28.6087991" lon="105.4706731"><ele>399.68</ele><time>2026-01-30T19:56:45.000Z</time></trkpt>
        <trkpt lat="28.6087299" lon="105.4707525"><ele>400.98</ele><time>2026-01-30T19:57:09.000Z</time></trkpt>
        <trkpt lat="28.6086807" lon="105.4707969"><ele>401.83</ele><time>2026-01-30T19:57:17.000Z</time></trkpt>
        <trkpt lat="28.608599" lon="105.4708292"><ele>402.99</ele><time>2026-01-30T19:57:31.000Z</time></trkpt>
        <trkpt lat="28.6085223" lon="105.4708978"><ele>403.8</ele><time>2026-01-30T19:57:41.000Z</time></trkpt>
        <trkpt lat="28.6085059" lon="105.471003"><ele>404.54</ele><time>2026-01-30T19:57:51.000Z</time></trkpt>
        <trkpt lat="28.6085306" lon="105.4711212"><ele>405.54</ele><time>2026-01-30T19:58:03.000Z</time></trkpt>
        <trkpt lat="28.6085575" lon="105.471234"><ele>406.36</ele><time>2026-01-30T19:58:13.000Z</time></trkpt>
        <trkpt lat="28.6085772" lon="105.4713436"><ele>406.47</ele><time>2026-01-30T19:58:21.000Z</time></trkpt>
        <trkpt lat="28.6085846" lon="105.4714549"><ele>407.26</ele><time>2026-01-30T19:58:29.000Z</time></trkpt>
        <trkpt lat="28.6085896" lon="105.4715741"><ele>407.69</ele><time>2026-01-30T19:58:37.000Z</time></trkpt>
        <trkpt lat="28.6085838" lon="105.4716186"><ele>409.13</ele><time>2026-01-30T19:58:41.000Z</time></trkpt>
        <trkpt lat="28.6085443" lon="105.4717074"><ele>409.65</ele><time>2026-01-30T19:58:51.000Z</time></trkpt>
        <trkpt lat="28.6085168" lon="105.4718078"><ele>410.17</ele><time>2026-01-30T19:58:59.000Z</time></trkpt>
        <trkpt lat="28.608486" lon="105.4719129"><ele>411.12</ele><time>2026-01-30T19:59:09.000Z</time></trkpt>
        <trkpt lat="28.6084649" lon="105.472025"><ele>411.42</ele><time>2026-01-30T19:59:19.000Z</time></trkpt>
        <trkpt lat="28.6084479" lon="105.4721414"><ele>410.93</ele><time>2026-01-30T19:59:29.000Z</time></trkpt>
        <trkpt lat="28.6084132" lon="105.47225"><ele>410.67</ele><time>2026-01-30T19:59:47.000Z</time></trkpt>
        <trkpt lat="28.6083683" lon="105.4723434"><ele>410.61</ele><time>2026-01-30T20:00:15.000Z</time></trkpt>
        <trkpt lat="28.6083305" lon="105.4724437"><ele>410.81</ele><time>2026-01-30T20:00:25.000Z</time></trkpt>
        <trkpt lat="28.6082782" lon="105.4725331"><ele>410.41</ele><time>2026-01-30T20:00:33.000Z</time></trkpt>
        <trkpt lat="28.6081993" lon="105.47261"><ele>410.28</ele><time>2026-01-30T20:00:43.000Z</time></trkpt>
        <trkpt lat="28.6081168" lon="105.4726708"><ele>410.79</ele><time>2026-01-30T20:00:53.000Z</time></trkpt>
        <trkpt lat="28.6080399" lon="105.4727309"><ele>411.02</ele><time>2026-01-30T20:01:03.000Z</time></trkpt>
        <trkpt lat="28.6079676" lon="105.4728051"><ele>411.42</ele><time>2026-01-30T20:01:15.000Z</time></trkpt>
        <trkpt lat="28.6078985" lon="105.4728783"><ele>411.09</ele><time>2026-01-30T20:01:29.000Z</time></trkpt>
        <trkpt lat="28.6078348" lon="105.4729556"><ele>410.27</ele><time>2026-01-30T20:01:55.000Z</time></trkpt>
        <trkpt lat="28.6077501" lon="105.4729586"><ele>410.45</ele><time>2026-01-30T20:02:19.000Z</time></trkpt>
        <trkpt lat="28.6076807" lon="105.4730122"><ele>410.15</ele><time>2026-01-30T20:03:33.000Z</time></trkpt>
        <trkpt lat="28.6076556" lon="105.4731175"><ele>410.73</ele><time>2026-01-30T20:04:17.000Z</time></trkpt>
        <trkpt lat="28.6076226" lon="105.4732235"><ele>410.64</ele><time>2026-01-30T20:04:31.000Z</time></trkpt>
        <trkpt lat="28.6075901" lon="105.4733296"><ele>410.63</ele><time>2026-01-30T20:04:49.000Z</time></trkpt>
        <trkpt lat="28.6075765" lon="105.4734349"><ele>411.07</ele><time>2026-01-30T20:04:59.000Z</time></trkpt>
        <trkpt lat="28.6075306" lon="105.4735255"><ele>411.72</ele><time>2026-01-30T20:05:21.000Z</time></trkpt>
        <trkpt lat="28.6074868" lon="105.4736168"><ele>410.98</ele><time>2026-01-30T20:05:31.000Z</time></trkpt>
        <trkpt lat="28.6074555" lon="105.4737233"><ele>411.05</ele><time>2026-01-30T20:05:43.000Z</time></trkpt>
        <trkpt lat="28.6074701" lon="105.4738338"><ele>411.98</ele><time>2026-01-30T20:06:07.000Z</time></trkpt>
        <trkpt lat="28.6075437" lon="105.4738917"><ele>413.76</ele><time>2026-01-30T20:06:19.000Z</time></trkpt>
        <trkpt lat="28.6076389" lon="105.4738745"><ele>415.14</ele><time>2026-01-30T20:06:31.000Z</time></trkpt>
        <trkpt lat="28.6077215" lon="105.4737924"><ele>415.21</ele><time>2026-01-30T20:06:47.000Z</time></trkpt>
        <trkpt lat="28.6077541" lon="105.4736488"><ele>415.65</ele><time>2026-01-30T20:08:23.000Z</time></trkpt>
        <trkpt lat="28.6078246" lon="105.4735715"><ele>416.66</ele><time>2026-01-30T20:08:35.000Z</time></trkpt>
        <trkpt lat="28.6079139" lon="105.4735148"><ele>418.17</ele><time>2026-01-30T20:08:49.000Z</time></trkpt>
        <trkpt lat="28.6079812" lon="105.4734384"><ele>420.39</ele><time>2026-01-30T20:09:03.000Z</time></trkpt>
        <trkpt lat="28.6080464" lon="105.4733662"><ele>421.78</ele><time>2026-01-30T20:09:19.000Z</time></trkpt>
        <trkpt lat="28.608117" lon="105.4732959"><ele>423.91</ele><time>2026-01-30T20:09:35.000Z</time></trkpt>
        <trkpt lat="28.6082056" lon="105.473274"><ele>425.37</ele><time>2026-01-30T20:10:07.000Z</time></trkpt>
        <trkpt lat="28.6082799" lon="105.4732225"><ele>427.15</ele><time>2026-01-30T20:11:31.000Z</time></trkpt>
        <trkpt lat="28.6083787" lon="105.4732137"><ele>428.84</ele><time>2026-01-30T20:12:07.000Z</time></trkpt>
        <trkpt lat="28.6084561" lon="105.4731617"><ele>430.18</ele><time>2026-01-30T20:12:29.000Z</time></trkpt>
        <trkpt lat="28.6085483" lon="105.4731673"><ele>431.28</ele><time>2026-01-30T20:13:19.000Z</time></trkpt>
        <trkpt lat="28.6086381" lon="105.473134"><ele>430.37</ele><time>2026-01-30T20:13:31.000Z</time></trkpt>
        <trkpt lat="28.6087281" lon="105.473073"><ele>431.03</ele><time>2026-01-30T20:13:53.000Z</time></trkpt>
        <trkpt lat="28.6088186" lon="105.4730311"><ele>433.06</ele><time>2026-01-30T20:14:13.000Z</time></trkpt>
        <trkpt lat="28.6089042" lon="105.4730585"><ele>435.35</ele><time>2026-01-30T20:14:23.000Z</time></trkpt>
        <trkpt lat="28.6090014" lon="105.4730801"><ele>438.53</ele><time>2026-01-30T20:14:47.000Z</time></trkpt>
        <trkpt lat="28.6090929" lon="105.4730703"><ele>439.45</ele><time>2026-01-30T20:15:31.000Z</time></trkpt>
        <trkpt lat="28.6091709" lon="105.4730174"><ele>440.9</ele><time>2026-01-30T20:15:43.000Z</time></trkpt>
        <trkpt lat="28.6092062" lon="105.4729154"><ele>441.96</ele><time>2026-01-30T20:15:57.000Z</time></trkpt>
        <trkpt lat="28.6092166" lon="105.4727977"><ele>443.45</ele><time>2026-01-30T20:16:11.000Z</time></trkpt>
        <trkpt lat="28.6092244" lon="105.4726811"><ele>444.89</ele><time>2026-01-30T20:16:35.000Z</time></trkpt>
        <trkpt lat="28.6092872" lon="105.4726131"><ele>444.56</ele><time>2026-01-30T20:16:55.000Z</time></trkpt>
        <trkpt lat="28.6093053" lon="105.4726026"><ele>445.27</ele><time>2026-01-30T20:16:57.000Z</time></trkpt>
        <trkpt lat="28.6093574" lon="105.4725492"><ele>445.69</ele><time>2026-01-30T20:17:23.000Z</time></trkpt>
        <trkpt lat="28.609384" lon="105.4725436"><ele>446.89</ele><time>2026-01-30T20:17:27.000Z</time></trkpt>
        <trkpt lat="28.609427" lon="105.4724652"><ele>447.74</ele><time>2026-01-30T20:18:33.000Z</time></trkpt>
        <trkpt lat="28.609518" lon="105.4724179"><ele>448.84</ele><time>2026-01-30T20:21:55.000Z</time></trkpt>
        <trkpt lat="28.6095839" lon="105.4723641"><ele>450.3</ele><time>2026-01-30T20:22:09.000Z</time></trkpt>
        <trkpt lat="28.6096648" lon="105.4723081"><ele>451.02</ele><time>2026-01-30T20:22:43.000Z</time></trkpt>
        <trkpt lat="28.609749" lon="105.4722533"><ele>451.55</ele><time>2026-01-30T20:22:57.000Z</time></trkpt>
        <trkpt lat="28.6098193" lon="105.4721765"><ele>452.75</ele><time>2026-01-30T20:23:09.000Z</time></trkpt>
        <trkpt lat="28.6098551" lon="105.4720717"><ele>454.58</ele><time>2026-01-30T20:23:25.000Z</time></trkpt>
        <trkpt lat="28.6098704" lon="105.4720113"><ele>455.99</ele><time>2026-01-30T20:23:33.000Z</time></trkpt>
        <trkpt lat="28.6099406" lon="105.4719593"><ele>457.97</ele><time>2026-01-30T20:23:55.000Z</time></trkpt>
        <trkpt lat="28.6100361" lon="105.4719285"><ele>458.58</ele><time>2026-01-30T20:24:09.000Z</time></trkpt>
        <trkpt lat="28.6101327" lon="105.4719254"><ele>459.76</ele><time>2026-01-30T20:25:03.000Z</time></trkpt>
        <trkpt lat="28.6102277" lon="105.4719488"><ele>461.68</ele><time>2026-01-30T20:25:19.000Z</time></trkpt>
        <trkpt lat="28.6102546" lon="105.4719606"><ele>462.68</ele><time>2026-01-30T20:25:21.000Z</time></trkpt>
        <trkpt lat="28.6103294" lon="105.4719954"><ele>463.27</ele><time>2026-01-30T20:26:55.000Z</time></trkpt>
        <trkpt lat="28.6104289" lon="105.4719484"><ele>464.65</ele><time>2026-01-30T20:27:07.000Z</time></trkpt>
        <trkpt lat="28.610526" lon="105.4719474"><ele>465.17</ele><time>2026-01-30T20:27:17.000Z</time></trkpt>
        <trkpt lat="28.6106197" lon="105.4719949"><ele>465.36</ele><time>2026-01-30T20:27:29.000Z</time></trkpt>
        <trkpt lat="28.6107078" lon="105.4720571"><ele>466.22</ele><time>2026-01-30T20:27:41.000Z</time></trkpt>
        <trkpt lat="28.6108028" lon="105.4720729"><ele>466.15</ele><time>2026-01-30T20:27:53.000Z</time></trkpt>
        <trkpt lat="28.6108918" lon="105.4721162"><ele>465.35</ele><time>2026-01-30T20:28:13.000Z</time></trkpt>
        <trkpt lat="28.6108588" lon="105.4722258"><ele>464.84</ele><time>2026-01-30T20:32:35.000Z</time></trkpt>
        <trkpt lat="28.6107547" lon="105.472202"><ele>466.97</ele><time>2026-01-30T20:33:09.000Z</time></trkpt>
        <trkpt lat="28.6106664" lon="105.4721697"><ele>467.87</ele><time>2026-01-30T20:33:23.000Z</time></trkpt>
        <trkpt lat="28.6105734" lon="105.4721345"><ele>469.11</ele><time>2026-01-30T20:33:47.000Z</time></trkpt>
        <trkpt lat="28.6104778" lon="105.4721206"><ele>470.73</ele><time>2026-01-30T20:34:01.000Z</time></trkpt>
        <trkpt lat="28.6103832" lon="105.4721407"><ele>472.74</ele><time>2026-01-30T20:34:33.000Z</time></trkpt>
        <trkpt lat="28.6103022" lon="105.4721956"><ele>475.32</ele><time>2026-01-30T20:34:45.000Z</time></trkpt>
        <trkpt lat="28.6102202" lon="105.4722511"><ele>477.52</ele><time>2026-01-30T20:34:57.000Z</time></trkpt>
        <trkpt lat="28.6101475" lon="105.4723234"><ele>479.4</ele><time>2026-01-30T20:35:19.000Z</time></trkpt>
        <trkpt lat="28.61011" lon="105.4724269"><ele>481.73</ele><time>2026-01-30T20:35:31.000Z</time></trkpt>
        <trkpt lat="28.6100979" lon="105.4725417"><ele>482.98</ele><time>2026-01-30T20:35:43.000Z</time></trkpt>
        <trkpt lat="28.6100466" lon="105.4726398"><ele>483.38</ele><time>2026-01-30T20:36:17.000Z</time></trkpt>
        <trkpt lat="28.6100061" lon="105.4727407"><ele>484.01</ele><time>2026-01-30T20:36:27.000Z</time></trkpt>
        <trkpt lat="28.6099783" lon="105.4728411"><ele>484.4</ele><time>2026-01-30T20:36:37.000Z</time></trkpt>
        <trkpt lat="28.6099312" lon="105.4729414"><ele>483.73</ele><time>2026-01-30T20:36:53.000Z</time></trkpt>
        <trkpt lat="28.6098967" lon="105.4729978"><ele>483.67</ele><time>2026-01-30T20:37:01.000Z</time></trkpt>
        <trkpt lat="28.609892" lon="105.4731"><ele>483.37</ele><time>2026-01-30T20:37:25.000Z</time></trkpt>
        <trkpt lat="28.6099279" lon="105.4731964"><ele>483.55</ele><time>2026-01-30T20:37:33.000Z</time></trkpt>
        <trkpt lat="28.6099916" lon="105.4732952"><ele>483.29</ele><time>2026-01-30T20:37:43.000Z</time></trkpt>
        <trkpt lat="28.6100146" lon="105.4734005"><ele>483.49</ele><time>2026-01-30T20:37:57.000Z</time></trkpt>
        <trkpt lat="28.6100572" lon="105.4734624"><ele>484.33</ele><time>2026-01-30T20:38:03.000Z</time></trkpt>
        <trkpt lat="28.6101489" lon="105.4735154"><ele>485</ele><time>2026-01-30T20:39:11.000Z</time></trkpt>
        <trkpt lat="28.6101506" lon="105.4736177"><ele>486.52</ele><time>2026-01-30T20:39:19.000Z</time></trkpt>
        <trkpt lat="28.6100899" lon="105.4737067"><ele>487.88</ele><time>2026-01-30T20:39:31.000Z</time></trkpt>
        <trkpt lat="28.6100046" lon="105.4737439"><ele>490.29</ele><time>2026-01-30T20:39:43.000Z</time></trkpt>
        <trkpt lat="28.6099192" lon="105.4737855"><ele>491.9</ele><time>2026-01-30T20:39:53.000Z</time></trkpt>
        <trkpt lat="28.6098648" lon="105.4738711"><ele>492.68</ele><time>2026-01-30T20:40:05.000Z</time></trkpt>
        <trkpt lat="28.6098441" lon="105.4739768"><ele>493</ele><time>2026-01-30T20:40:15.000Z</time></trkpt>
        <trkpt lat="28.6098353" lon="105.4740498"><ele>493.34</ele><time>2026-01-30T20:40:21.000Z</time></trkpt>
        <trkpt lat="28.6098244" lon="105.4741477"><ele>492.94</ele><time>2026-01-30T20:40:41.000Z</time></trkpt>
        <trkpt lat="28.6097806" lon="105.4742338"><ele>492.7</ele><time>2026-01-30T20:41:05.000Z</time></trkpt>
        <trkpt lat="28.6096822" lon="105.474242"><ele>492.58</ele><time>2026-01-30T21:04:11.000Z</time></trkpt>
        <trkpt lat="28.6095977" lon="105.474173"><ele>492.59</ele><time>2026-01-30T21:05:13.000Z</time></trkpt>
        <trkpt lat="28.6095098" lon="105.4741196"><ele>494.05</ele><time>2026-01-30T21:05:25.000Z</time></trkpt>
        <trkpt lat="28.6094243" lon="105.4740699"><ele>495.53</ele><time>2026-01-30T21:05:37.000Z</time></trkpt>
        <trkpt lat="28.6093368" lon="105.4740232"><ele>496.88</ele><time>2026-01-30T21:05:47.000Z</time></trkpt>
        <trkpt lat="28.6092446" lon="105.4739795"><ele>498.06</ele><time>2026-01-30T21:05:57.000Z</time></trkpt>
        <trkpt lat="28.6091661" lon="105.4739189"><ele>498.7</ele><time>2026-01-30T21:06:09.000Z</time></trkpt>
        <trkpt lat="28.6090797" lon="105.4738671"><ele>498.59</ele><time>2026-01-30T21:06:21.000Z</time></trkpt>
        <trkpt lat="28.6089871" lon="105.4738363"><ele>498.02</ele><time>2026-01-30T21:06:49.000Z</time></trkpt>
        <trkpt lat="28.6088938" lon="105.4738444"><ele>497.4</ele><time>2026-01-30T21:06:57.000Z</time></trkpt>
        <trkpt lat="28.6088151" lon="105.4739058"><ele>497.24</ele><time>2026-01-30T21:07:07.000Z</time></trkpt>
        <trkpt lat="28.6087662" lon="105.4740118"><ele>496.22</ele><time>2026-01-30T21:07:17.000Z</time></trkpt>
        <trkpt lat="28.6087432" lon="105.4741254"><ele>495.98</ele><time>2026-01-30T21:07:27.000Z</time></trkpt>
        <trkpt lat="28.6087172" lon="105.4742345"><ele>495.58</ele><time>2026-01-30T21:07:43.000Z</time></trkpt>
        <trkpt lat="28.6086478" lon="105.4742948"><ele>495.61</ele><time>2026-01-30T21:08:03.000Z</time></trkpt>
        <trkpt lat="28.6085634" lon="105.4743338"><ele>496.51</ele><time>2026-01-30T21:08:19.000Z</time></trkpt>
        <trkpt lat="28.6084941" lon="105.4744064"><ele>497.53</ele><time>2026-01-30T21:08:35.000Z</time></trkpt>
        <trkpt lat="28.6084576" lon="105.4745006"><ele>497.71</ele><time>2026-01-30T21:08:49.000Z</time></trkpt>
        <trkpt lat="28.6084347" lon="105.4746058"><ele>497.88</ele><time>2026-01-30T21:09:03.000Z</time></trkpt>
        <trkpt lat="28.6084237" lon="105.474718"><ele>496.79</ele><time>2026-01-30T21:09:17.000Z</time></trkpt>
        <trkpt lat="28.6084004" lon="105.4748346"><ele>494.9</ele><time>2026-01-30T21:09:29.000Z</time></trkpt>
        <trkpt lat="28.6083693" lon="105.4749449"><ele>492.97</ele><time>2026-01-30T21:09:43.000Z</time></trkpt>
        <trkpt lat="28.6083525" lon="105.475057"><ele>491.84</ele><time>2026-01-30T21:09:53.000Z</time></trkpt>
        <trkpt lat="28.6083311" lon="105.4751735"><ele>491.14</ele><time>2026-01-30T21:10:05.000Z</time></trkpt>
        <trkpt lat="28.6082623" lon="105.4752541"><ele>492.2</ele><time>2026-01-30T21:10:21.000Z</time></trkpt>
        <trkpt lat="28.608169" lon="105.475261"><ele>493.29</ele><time>2026-01-30T21:10:33.000Z</time></trkpt>
        <trkpt lat="28.6080722" lon="105.4752376"><ele>495.05</ele><time>2026-01-30T21:10:43.000Z</time></trkpt>
        <trkpt lat="28.607985" lon="105.475176"><ele>496.96</ele><time>2026-01-30T21:10:57.000Z</time></trkpt>
        <trkpt lat="28.6078943" lon="105.4751054"><ele>498.08</ele><time>2026-01-30T21:11:09.000Z</time></trkpt>
        <trkpt lat="28.6078106" lon="105.4750365"><ele>497.85</ele><time>2026-01-30T21:11:21.000Z</time></trkpt>
        <trkpt lat="28.607723" lon="105.475004"><ele>497</ele><time>2026-01-30T21:11:31.000Z</time></trkpt>
        <trkpt lat="28.6076245" lon="105.4749805"><ele>495.4</ele><time>2026-01-30T21:11:43.000Z</time></trkpt>
        <trkpt lat="28.607541" lon="105.4749732"><ele>493.7</ele><time>2026-01-30T21:11:53.000Z</time></trkpt>
        <trkpt lat="28.6074525" lon="105.4750084"><ele>492.88</ele><time>2026-01-30T21:12:13.000Z</time></trkpt>
        <trkpt lat="28.6073834" lon="105.475085"><ele>491.41</ele><time>2026-01-30T21:12:23.000Z</time></trkpt>
        <trkpt lat="28.6073107" lon="105.4751746"><ele>489.62</ele><time>2026-01-30T21:12:33.000Z</time></trkpt>
        <trkpt lat="28.6072311" lon="105.4752496"><ele>488.6</ele><time>2026-01-30T21:12:43.000Z</time></trkpt>
        <trkpt lat="28.607141" lon="105.4753085"><ele>487.46</ele><time>2026-01-30T21:12:53.000Z</time></trkpt>
        <trkpt lat="28.6070551" lon="105.4753631"><ele>486.33</ele><time>2026-01-30T21:13:03.000Z</time></trkpt>
        <trkpt lat="28.606979" lon="105.4754387"><ele>485.88</ele><time>2026-01-30T21:13:17.000Z</time></trkpt>
        <trkpt lat="28.6068968" lon="105.4754866"><ele>486.24</ele><time>2026-01-30T21:13:29.000Z</time></trkpt>
        <trkpt lat="28.6068121" lon="105.4755458"><ele>485.45</ele><time>2026-01-30T21:13:47.000Z</time></trkpt>
        <trkpt lat="28.6067574" lon="105.4756282"><ele>482.55</ele><time>2026-01-30T21:13:55.000Z</time></trkpt>
        <trkpt lat="28.6067213" lon="105.4757266"><ele>479.66</ele><time>2026-01-30T21:14:05.000Z</time></trkpt>
        <trkpt lat="28.6066765" lon="105.4758255"><ele>478.39</ele><time>2026-01-30T21:14:19.000Z</time></trkpt>
        <trkpt lat="28.6066025" lon="105.4758811"><ele>477.16</ele><time>2026-01-30T21:14:31.000Z</time></trkpt>
        <trkpt lat="28.6065081" lon="105.475885"><ele>475.29</ele><time>2026-01-30T21:14:41.000Z</time></trkpt>
        <trkpt lat="28.6064289" lon="105.4758213"><ele>474.15</ele><time>2026-01-30T21:14:53.000Z</time></trkpt>
        <trkpt lat="28.6063679" lon="105.4757271"><ele>472.8</ele><time>2026-01-30T21:15:05.000Z</time></trkpt>
        <trkpt lat="28.6063211" lon="105.4756247"><ele>472.75</ele><time>2026-01-30T21:15:23.000Z</time></trkpt>
        <trkpt lat="28.6062432" lon="105.4755951"><ele>473.18</ele><time>2026-01-30T21:16:15.000Z</time></trkpt>
        <trkpt lat="28.6062922" lon="105.4755734"><ele>474.69</ele><time>2026-01-30T21:16:37.000Z</time></trkpt>
        <trkpt lat="28.6062925" lon="105.4756353"><ele>475.29</ele><time>2026-01-30T21:16:59.000Z</time></trkpt>
        <trkpt lat="28.6062567" lon="105.475731"><ele>475.28</ele><time>2026-01-30T21:17:35.000Z</time></trkpt>
        <trkpt lat="28.606313" lon="105.4758333"><ele>477.33</ele><time>2026-01-30T21:18:45.000Z</time></trkpt>
        <trkpt lat="28.6063209" lon="105.4759399"><ele>481.92</ele><time>2026-01-30T21:21:33.000Z</time></trkpt>
        <trkpt lat="28.6063558" lon="105.4760375"><ele>484.73</ele><time>2026-01-30T21:24:07.000Z</time></trkpt>
        <trkpt lat="28.6062678" lon="105.4760711"><ele>488.28</ele><time>2026-01-30T21:26:03.000Z</time></trkpt>
        <trkpt lat="28.6062353" lon="105.4761745"><ele>490.83</ele><time>2026-01-30T21:26:37.000Z</time></trkpt>
        <trkpt lat="28.6061816" lon="105.4762608"><ele>491.56</ele><time>2026-01-30T21:27:39.000Z</time></trkpt>
        <trkpt lat="28.606278" lon="105.4762907"><ele>497.67</ele><time>2026-01-30T21:28:35.000Z</time></trkpt>
        <trkpt lat="28.6062321" lon="105.4763789"><ele>506.5</ele><time>2026-01-30T21:30:49.000Z</time></trkpt>
        <trkpt lat="28.6061433" lon="105.4764057"><ele>514.09</ele><time>2026-01-30T21:31:13.000Z</time></trkpt>
        <trkpt lat="28.6060622" lon="105.476478"><ele>518.2</ele><time>2026-01-30T21:31:49.000Z</time></trkpt>
        <trkpt lat="28.6059787" lon="105.4765511"><ele>520.31</ele><time>2026-01-30T21:32:45.000Z</time></trkpt>
        <trkpt lat="28.6059136" lon="105.4766405"><ele>520.53</ele><time>2026-01-30T21:33:15.000Z</time></trkpt>
        <trkpt lat="28.6058754" lon="105.4767381"><ele>520.6</ele><time>2026-01-30T21:33:29.000Z</time></trkpt>
        <trkpt lat="28.6057998" lon="105.4768016"><ele>520.32</ele><time>2026-01-30T21:33:39.000Z</time></trkpt>
        <trkpt lat="28.6057193" lon="105.4768632"><ele>520.54</ele><time>2026-01-30T21:33:53.000Z</time></trkpt>
        <trkpt lat="28.6056385" lon="105.4769225"><ele>521.13</ele><time>2026-01-30T21:34:07.000Z</time></trkpt>
        <trkpt lat="28.6055602" lon="105.4769856"><ele>520.99</ele><time>2026-01-30T21:34:17.000Z</time></trkpt>
        <trkpt lat="28.6054738" lon="105.4770481"><ele>519.66</ele><time>2026-01-30T21:34:29.000Z</time></trkpt>
        <trkpt lat="28.6053856" lon="105.4770891"><ele>515.3</ele><time>2026-01-30T21:34:37.000Z</time></trkpt>
        <trkpt lat="28.6052855" lon="105.4771238"><ele>511.23</ele><time>2026-01-30T21:34:47.000Z</time></trkpt>
        <trkpt lat="28.6051824" lon="105.477121"><ele>508.36</ele><time>2026-01-30T21:34:57.000Z</time></trkpt>
        <trkpt lat="28.6051253" lon="105.4770852"><ele>504.18</ele><time>2026-01-30T21:35:05.000Z</time></trkpt>
        <trkpt lat="28.6050973" lon="105.4769098"><ele>502.67</ele><time>2026-01-30T21:36:38.000Z</time></trkpt>
        <trkpt lat="28.6050588" lon="105.4767984"><ele>498.22</ele><time>2026-01-30T21:36:48.000Z</time></trkpt>
        <trkpt lat="28.6049766" lon="105.4767746"><ele>494.16</ele><time>2026-01-30T21:36:58.000Z</time></trkpt>
        <trkpt lat="28.6049291" lon="105.4766646"><ele>488.71</ele><time>2026-01-30T21:37:04.000Z</time></trkpt>
        <trkpt lat="28.6049161" lon="105.4766551"><ele>485.19</ele><time>2026-01-30T21:37:10.000Z</time></trkpt>
        <trkpt lat="28.6048519" lon="105.4766834"><ele>483.15</ele><time>2026-01-30T21:37:24.000Z</time></trkpt>
        <trkpt lat="28.6048376" lon="105.4766957"><ele>481.64</ele><time>2026-01-30T21:37:28.000Z</time></trkpt>
        <trkpt lat="28.6048508" lon="105.476812"><ele>483.53</ele><time>2026-01-30T21:38:34.000Z</time></trkpt>
        <trkpt lat="28.6047626" lon="105.4767743"><ele>488.96</ele><time>2026-01-30T21:39:04.000Z</time></trkpt>
        <trkpt lat="28.604682" lon="105.4767131"><ele>493.11</ele><time>2026-01-30T21:39:20.000Z</time></trkpt>
        <trkpt lat="28.6046283" lon="105.4767084"><ele>497.04</ele><time>2026-01-30T21:39:32.000Z</time></trkpt>
        <trkpt lat="28.6046337" lon="105.4766145"><ele>499.11</ele><time>2026-01-30T21:39:46.000Z</time></trkpt>
        <trkpt lat="28.6046486" lon="105.4765756"><ele>502.84</ele><time>2026-01-30T21:39:50.000Z</time></trkpt>
        <trkpt lat="28.6046654" lon="105.4766885"><ele>505.18</ele><time>2026-01-30T21:41:08.000Z</time></trkpt>
        <trkpt lat="28.6046847" lon="105.476702"><ele>508.81</ele><time>2026-01-30T21:41:14.000Z</time></trkpt>
        <trkpt lat="28.6047148" lon="105.476808"><ele>510.59</ele><time>2026-01-30T21:42:14.000Z</time></trkpt>
        <trkpt lat="28.6048164" lon="105.4768858"><ele>511.28</ele><time>2026-01-30T21:42:26.000Z</time></trkpt>
        <trkpt lat="28.6049986" lon="105.4768562"><ele>509.69</ele><time>2026-01-30T21:42:34.000Z</time></trkpt>
        <trkpt lat="28.605111" lon="105.476879"><ele>508.94</ele><time>2026-01-30T21:42:46.000Z</time></trkpt>
        <trkpt lat="28.6050909" lon="105.4769534"><ele>508.74</ele><time>2026-01-30T21:43:14.000Z</time></trkpt>
        <trkpt lat="28.605057" lon="105.4770592"><ele>499.5</ele><time>2026-01-30T21:43:36.000Z</time></trkpt>
        <trkpt lat="28.6050117" lon="105.4769771"><ele>492.57</ele><time>2026-01-30T21:45:04.000Z</time></trkpt>
        <trkpt lat="28.6050242" lon="105.4768887"><ele>488.24</ele><time>2026-01-30T21:47:40.000Z</time></trkpt>
        <trkpt lat="28.6052066" lon="105.4749205"><ele>485.22</ele><time>2026-01-30T21:50:36.000Z</time></trkpt>
        <trkpt lat="28.6051716" lon="105.4750349"><ele>538.93</ele><time>2026-01-30T21:50:40.000Z</time></trkpt>
        <trkpt lat="28.6051225" lon="105.4758201"><ele>563.92</ele><time>2026-01-30T21:50:50.000Z</time></trkpt>
        <trkpt lat="28.6051056" lon="105.4761378"><ele>552.75</ele><time>2026-01-30T21:50:54.000Z</time></trkpt>
        <trkpt lat="28.6051023" lon="105.4763144"><ele>543.76</ele><time>2026-01-30T21:50:58.000Z</time></trkpt>
        <trkpt lat="28.6051028" lon="105.476422"><ele>534.6</ele><time>2026-01-30T21:51:04.000Z</time></trkpt>
        <trkpt lat="28.6051156" lon="105.4765047"><ele>529.16</ele><time>2026-01-30T21:51:40.000Z</time></trkpt>
        <trkpt lat="28.6050946" lon="105.4765842"><ele>522.19</ele><time>2026-01-30T21:51:46.000Z</time></trkpt>
        <trkpt lat="28.6050663" lon="105.4765185"><ele>516.74</ele><time>2026-01-30T21:52:26.000Z</time></trkpt>
        <trkpt lat="28.6050574" lon="105.4765789"><ele>511.46</ele><time>2026-01-30T21:53:06.000Z</time></trkpt>
        <trkpt lat="28.6050517" lon="105.4766834"><ele>506.01</ele><time>2026-01-30T21:53:08.000Z</time></trkpt>
        <trkpt lat="28.6050443" lon="105.4767977"><ele>503.2</ele><time>2026-01-30T21:53:12.000Z</time></trkpt>
        <trkpt lat="28.6050291" lon="105.4768615"><ele>500.74</ele><time>2026-01-30T21:53:14.000Z</time></trkpt>
        <trkpt lat="28.60541" lon="105.4755375"><ele>499.24</ele><time>2026-01-30T21:54:13.000Z</time></trkpt>
        <trkpt lat="28.6054422" lon="105.4751282"><ele>534.73</ele><time>2026-01-30T21:54:18.000Z</time></trkpt>
        <trkpt lat="28.6054095" lon="105.4751281"><ele>565.68</ele><time>2026-01-30T21:54:22.000Z</time></trkpt>
        <trkpt lat="28.6053759" lon="105.4752408"><ele>575.06</ele><time>2026-01-30T21:54:32.000Z</time></trkpt>
        <trkpt lat="28.605304" lon="105.4754695"><ele>576.87</ele><time>2026-01-30T21:54:36.000Z</time></trkpt>
        <trkpt lat="28.6052697" lon="105.4756583"><ele>570.64</ele><time>2026-01-30T21:54:38.000Z</time></trkpt>
        <trkpt lat="28.605278" lon="105.4758224"><ele>564.5</ele><time>2026-01-30T21:54:42.000Z</time></trkpt>
        <trkpt lat="28.6053003" lon="105.4759577"><ele>555.81</ele><time>2026-01-30T21:54:44.000Z</time></trkpt>
        <trkpt lat="28.6053196" lon="105.4760697"><ele>550.43</ele><time>2026-01-30T21:54:46.000Z</time></trkpt>
        <trkpt lat="28.6053203" lon="105.4762116"><ele>546.8</ele><time>2026-01-30T21:54:48.000Z</time></trkpt>
        <trkpt lat="28.6053116" lon="105.4763477"><ele>542.77</ele><time>2026-01-30T21:54:50.000Z</time></trkpt>
        <trkpt lat="28.6052155" lon="105.4765385"><ele>538.33</ele><time>2026-01-30T21:54:54.000Z</time></trkpt>
        <trkpt lat="28.6051497" lon="105.4767149"><ele>532.89</ele><time>2026-01-30T21:54:58.000Z</time></trkpt>
        <trkpt lat="28.6051138" lon="105.476843"><ele>527.59</ele><time>2026-01-30T21:55:08.000Z</time></trkpt>
        <trkpt lat="28.6050688" lon="105.4769567"><ele>522.88</ele><time>2026-01-30T21:55:20.000Z</time></trkpt>
        <trkpt lat="28.6050386" lon="105.4770549"><ele>519.53</ele><time>2026-01-30T21:55:44.000Z</time></trkpt>
        <trkpt lat="28.6050993" lon="105.4770413"><ele>515.96</ele><time>2026-01-30T21:56:20.000Z</time></trkpt>
        <trkpt lat="28.6051396" lon="105.4769872"><ele>511.13</ele><time>2026-01-30T21:56:40.000Z</time></trkpt>
        <trkpt lat="28.6052339" lon="105.4769047"><ele>508.78</ele><time>2026-01-30T21:57:06.000Z</time></trkpt>
        <trkpt lat="28.6052942" lon="105.4768043"><ele>506.81</ele><time>2026-01-30T21:57:42.000Z</time></trkpt>
        <trkpt lat="28.6053497" lon="105.4768597"><ele>506.74</ele><time>2026-01-30T21:57:54.000Z</time></trkpt>
        <trkpt lat="28.6053907" lon="105.4769785"><ele>505.8</ele><time>2026-01-30T21:58:02.000Z</time></trkpt>
        <trkpt lat="28.6054426" lon="105.4769572"><ele>505.66</ele><time>2026-01-30T21:58:58.000Z</time></trkpt>
        <trkpt lat="28.6054696" lon="105.4768325"><ele>506.94</ele><time>2026-01-30T22:00:10.000Z</time></trkpt>
        <trkpt lat="28.6055587" lon="105.476783"><ele>510.9</ele><time>2026-01-30T22:00:48.000Z</time></trkpt>
        <trkpt lat="28.6055845" lon="105.47679"><ele>514.3</ele><time>2026-01-30T22:00:58.000Z</time></trkpt>
        <trkpt lat="28.6056609" lon="105.4768087"><ele>514.82</ele><time>2026-01-30T22:01:18.000Z</time></trkpt>
        <trkpt lat="28.6057518" lon="105.4768117"><ele>515.71</ele><time>2026-01-30T22:01:46.000Z</time></trkpt>
        <trkpt lat="28.6058375" lon="105.4767727"><ele>516.31</ele><time>2026-01-30T22:02:06.000Z</time></trkpt>
        <trkpt lat="28.6058934" lon="105.4766855"><ele>518.38</ele><time>2026-01-30T22:02:34.000Z</time></trkpt>
        <trkpt lat="28.6059416" lon="105.4765894"><ele>519.2</ele><time>2026-01-30T22:03:20.000Z</time></trkpt>
        <trkpt lat="28.6059956" lon="105.4765397"><ele>520.82</ele><time>2026-01-30T22:03:32.000Z</time></trkpt>
        <trkpt lat="28.6060728" lon="105.4764801"><ele>521.43</ele><time>2026-01-30T22:04:06.000Z</time></trkpt>
        <trkpt lat="28.6061553" lon="105.4764207"><ele>518.96</ele><time>2026-01-30T22:04:16.000Z</time></trkpt>
        <trkpt lat="28.6062553" lon="105.476403"><ele>518.22</ele><time>2026-01-30T22:04:32.000Z</time></trkpt>
        <trkpt lat="28.6062404" lon="105.4765207"><ele>519.49</ele><time>2026-01-30T22:06:16.000Z</time></trkpt>
        <trkpt lat="28.6061725" lon="105.4765943"><ele>524.17</ele><time>2026-01-30T22:06:32.000Z</time></trkpt>
        <trkpt lat="28.6060983" lon="105.4766611"><ele>529.17</ele><time>2026-01-30T22:06:58.000Z</time></trkpt>
        <trkpt lat="28.6060356" lon="105.4767451"><ele>533.23</ele><time>2026-01-30T22:07:10.000Z</time></trkpt>
        <trkpt lat="28.6060059" lon="105.4768167"><ele>534.98</ele><time>2026-01-30T22:07:20.000Z</time></trkpt>
        <trkpt lat="28.6059684" lon="105.4769043"><ele>536.7</ele><time>2026-01-30T22:07:42.000Z</time></trkpt>
        <trkpt lat="28.6058975" lon="105.4769698"><ele>537.98</ele><time>2026-01-30T22:07:50.000Z</time></trkpt>
        <trkpt lat="28.6058014" lon="105.4769685"><ele>540.55</ele><time>2026-01-30T22:08:04.000Z</time></trkpt>
        <trkpt lat="28.6057057" lon="105.4769405"><ele>541.97</ele><time>2026-01-30T22:08:18.000Z</time></trkpt>
        <trkpt lat="28.6056131" lon="105.4769661"><ele>543.16</ele><time>2026-01-30T22:08:26.000Z</time></trkpt>
        <trkpt lat="28.6055166" lon="105.4770062"><ele>543.67</ele><time>2026-01-30T22:08:36.000Z</time></trkpt>
        <trkpt lat="28.6054844" lon="105.4770012"><ele>544.18</ele><time>2026-01-30T22:08:40.000Z</time></trkpt>
        <trkpt lat="28.6054078" lon="105.4769849"><ele>544.04</ele><time>2026-01-30T22:08:54.000Z</time></trkpt>
        <trkpt lat="28.6053281" lon="105.4770237"><ele>541.72</ele><time>2026-01-30T22:09:04.000Z</time></trkpt>
        <trkpt lat="28.6052277" lon="105.4770445"><ele>540.67</ele><time>2026-01-30T22:09:14.000Z</time></trkpt>
        <trkpt lat="28.6051673" lon="105.4770443"><ele>539.94</ele><time>2026-01-30T22:09:26.000Z</time></trkpt>
        <trkpt lat="28.6050936" lon="105.4770806"><ele>541.92</ele><time>2026-01-30T22:11:16.000Z</time></trkpt>
        <trkpt lat="28.6050077" lon="105.4771139"><ele>543.55</ele><time>2026-01-30T22:12:16.000Z</time></trkpt>
        <trkpt lat="28.6049364" lon="105.4771857"><ele>545.44</ele><time>2026-01-30T22:12:34.000Z</time></trkpt>
        <trkpt lat="28.6048478" lon="105.4772091"><ele>547.68</ele><time>2026-01-30T22:12:54.000Z</time></trkpt>
        <trkpt lat="28.6048151" lon="105.4772025"><ele>552.16</ele><time>2026-01-30T22:12:58.000Z</time></trkpt>
        <trkpt lat="28.6047964" lon="105.4772928"><ele>555.22</ele><time>2026-01-30T22:13:54.000Z</time></trkpt>
        <trkpt lat="28.6047309" lon="105.4773522"><ele>556.13</ele><time>2026-01-30T22:14:06.000Z</time></trkpt>
        <trkpt lat="28.6047154" lon="105.4773637"><ele>557.81</ele><time>2026-01-30T22:14:08.000Z</time></trkpt>
        <trkpt lat="28.6046762" lon="105.4774254"><ele>558.76</ele><time>2026-01-30T22:14:40.000Z</time></trkpt>
        <trkpt lat="28.6046458" lon="105.4775189"><ele>559.84</ele><time>2026-01-30T22:14:54.000Z</time></trkpt>
        <trkpt lat="28.6046003" lon="105.4776138"><ele>560.45</ele><time>2026-01-30T22:15:18.000Z</time></trkpt>
        <trkpt lat="28.6045534" lon="105.4777124"><ele>562.76</ele><time>2026-01-30T22:16:02.000Z</time></trkpt>
        <trkpt lat="28.6044959" lon="105.4778046"><ele>565.88</ele><time>2026-01-30T22:16:12.000Z</time></trkpt>
        <trkpt lat="28.6044611" lon="105.4779176"><ele>569.51</ele><time>2026-01-30T22:16:54.000Z</time></trkpt>
        <trkpt lat="28.6044369" lon="105.4780339"><ele>572.4</ele><time>2026-01-30T22:21:02.000Z</time></trkpt>
        <trkpt lat="28.6043852" lon="105.4781407"><ele>574.24</ele><time>2026-01-30T22:21:20.000Z</time></trkpt>
        <trkpt lat="28.6042874" lon="105.4781648"><ele>575.37</ele><time>2026-01-30T22:21:32.000Z</time></trkpt>
        <trkpt lat="28.6042226" lon="105.478102"><ele>576.28</ele><time>2026-01-30T22:21:42.000Z</time></trkpt>
        <trkpt lat="28.604181" lon="105.4779993"><ele>576.43</ele><time>2026-01-30T22:21:54.000Z</time></trkpt>
        <trkpt lat="28.604173" lon="105.4779211"><ele>576.08</ele><time>2026-01-30T22:22:04.000Z</time></trkpt>
        <trkpt lat="28.6041759" lon="105.4778162"><ele>576.19</ele><time>2026-01-30T22:22:20.000Z</time></trkpt>
        <trkpt lat="28.604192" lon="105.4777083"><ele>577.21</ele><time>2026-01-30T22:22:42.000Z</time></trkpt>
        <trkpt lat="28.6041744" lon="105.4775949"><ele>578.43</ele><time>2026-01-30T22:22:50.000Z</time></trkpt>
        <trkpt lat="28.6041463" lon="105.4774808"><ele>579.08</ele><time>2026-01-30T22:23:04.000Z</time></trkpt>
        <trkpt lat="28.6041588" lon="105.4773725"><ele>579.55</ele><time>2026-01-30T22:23:14.000Z</time></trkpt>
        <trkpt lat="28.6042019" lon="105.477263"><ele>580.06</ele><time>2026-01-30T22:23:24.000Z</time></trkpt>
        <trkpt lat="28.6042422" lon="105.4771476"><ele>580.9</ele><time>2026-01-30T22:23:34.000Z</time></trkpt>
        <trkpt lat="28.6042808" lon="105.4770343"><ele>581.38</ele><time>2026-01-30T22:23:44.000Z</time></trkpt>
        <trkpt lat="28.6043095" lon="105.4769318"><ele>581.39</ele><time>2026-01-30T22:23:54.000Z</time></trkpt>
        <trkpt lat="28.6043351" lon="105.4768264"><ele>582.56</ele><time>2026-01-30T22:25:08.000Z</time></trkpt>
        <trkpt lat="28.6043517" lon="105.4767123"><ele>582.54</ele><time>2026-01-30T22:25:20.000Z</time></trkpt>
        <trkpt lat="28.6043563" lon="105.4766897"><ele>583.17</ele><time>2026-01-30T22:25:22.000Z</time></trkpt>
        <trkpt lat="28.6043046" lon="105.4766174"><ele>583.54</ele><time>2026-01-30T22:25:44.000Z</time></trkpt>
        <trkpt lat="28.6042353" lon="105.4765373"><ele>583.71</ele><time>2026-01-30T22:25:52.000Z</time></trkpt>
        <trkpt lat="28.6041413" lon="105.4765053"><ele>584.39</ele><time>2026-01-30T22:26:02.000Z</time></trkpt>
        <trkpt lat="28.6040387" lon="105.4765069"><ele>586.03</ele><time>2026-01-30T22:26:20.000Z</time></trkpt>
        <trkpt lat="28.6039415" lon="105.4765279"><ele>588.37</ele><time>2026-01-30T22:26:32.000Z</time></trkpt>
        <trkpt lat="28.6038463" lon="105.4765479"><ele>590.19</ele><time>2026-01-30T22:26:42.000Z</time></trkpt>
        <trkpt lat="28.603755" lon="105.4765834"><ele>592.07</ele><time>2026-01-30T22:26:52.000Z</time></trkpt>
        <trkpt lat="28.6036798" lon="105.4766521"><ele>593.9</ele><time>2026-01-30T22:27:02.000Z</time></trkpt>
        <trkpt lat="28.6036544" lon="105.4767621"><ele>595.1</ele><time>2026-01-30T22:27:14.000Z</time></trkpt>
        <trkpt lat="28.6035766" lon="105.476786"><ele>595.05</ele><time>2026-01-30T22:27:26.000Z</time></trkpt>
        <trkpt lat="28.6034833" lon="105.4767661"><ele>594.48</ele><time>2026-01-30T22:27:38.000Z</time></trkpt>
        <trkpt lat="28.6033896" lon="105.4767625"><ele>594.07</ele><time>2026-01-30T22:27:48.000Z</time></trkpt>
        <trkpt lat="28.603293" lon="105.4767687"><ele>593.87</ele><time>2026-01-30T22:27:58.000Z</time></trkpt>
        <trkpt lat="28.6031927" lon="105.4767876"><ele>594.37</ele><time>2026-01-30T22:28:08.000Z</time></trkpt>
        <trkpt lat="28.603091" lon="105.4767522"><ele>595.55</ele><time>2026-01-30T22:28:20.000Z</time></trkpt>
        <trkpt lat="28.6030285" lon="105.4766568"><ele>595.1</ele><time>2026-01-30T22:28:30.000Z</time></trkpt>
        <trkpt lat="28.6030327" lon="105.4765448"><ele>594.28</ele><time>2026-01-30T22:28:40.000Z</time></trkpt>
        <trkpt lat="28.6031021" lon="105.4764459"><ele>593.35</ele><time>2026-01-30T22:28:50.000Z</time></trkpt>
        <trkpt lat="28.6031985" lon="105.4763727"><ele>593.73</ele><time>2026-01-30T22:29:00.000Z</time></trkpt>
        <trkpt lat="28.6032994" lon="105.4763099"><ele>594.68</ele><time>2026-01-30T22:29:10.000Z</time></trkpt>
        <trkpt lat="28.6033693" lon="105.4762312"><ele>595.26</ele><time>2026-01-30T22:29:22.000Z</time></trkpt>
        <trkpt lat="28.6034223" lon="105.4761361"><ele>595.48</ele><time>2026-01-30T22:29:44.000Z</time></trkpt>
        <trkpt lat="28.6034479" lon="105.4760202"><ele>595.86</ele><time>2026-01-30T22:29:56.000Z</time></trkpt>
        <trkpt lat="28.6034083" lon="105.4759224"><ele>596.62</ele><time>2026-01-30T22:30:08.000Z</time></trkpt>
        <trkpt lat="28.6033182" lon="105.4758853"><ele>598.14</ele><time>2026-01-30T22:30:26.000Z</time></trkpt>
        <trkpt lat="28.6032101" lon="105.4758753"><ele>599.1</ele><time>2026-01-30T22:30:36.000Z</time></trkpt>
        <trkpt lat="28.603109" lon="105.4758632"><ele>600.19</ele><time>2026-01-30T22:30:44.000Z</time></trkpt>
        <trkpt lat="28.6030117" lon="105.4758383"><ele>600.57</ele><time>2026-01-30T22:30:52.000Z</time></trkpt>
        <trkpt lat="28.6029264" lon="105.4757926"><ele>600.69</ele><time>2026-01-30T22:31:00.000Z</time></trkpt>
        <trkpt lat="28.6028632" lon="105.4757163"><ele>600.73</ele><time>2026-01-30T22:31:08.000Z</time></trkpt>
        <trkpt lat="28.6028272" lon="105.4756081"><ele>600.8</ele><time>2026-01-30T22:31:20.000Z</time></trkpt>
        <trkpt lat="28.6028878" lon="105.4755184"><ele>599.36</ele><time>2026-01-30T22:31:31.000Z</time></trkpt>
        <trkpt lat="28.6029948" lon="105.4754591"><ele>598.08</ele><time>2026-01-30T22:31:41.000Z</time></trkpt>
        <trkpt lat="28.6031108" lon="105.4754179"><ele>597.09</ele><time>2026-01-30T22:31:51.000Z</time></trkpt>
        <trkpt lat="28.6032224" lon="105.4753787"><ele>595.99</ele><time>2026-01-30T22:32:01.000Z</time></trkpt>
        <trkpt lat="28.6032833" lon="105.4753684"><ele>595.07</ele><time>2026-01-30T22:32:09.000Z</time></trkpt>
        <trkpt lat="28.6033634" lon="105.4753378"><ele>594.58</ele><time>2026-01-30T22:32:25.000Z</time></trkpt>
        <trkpt lat="28.6034506" lon="105.4753095"><ele>593.98</ele><time>2026-01-30T22:32:35.000Z</time></trkpt>
        <trkpt lat="28.6035412" lon="105.4752552"><ele>592.81</ele><time>2026-01-30T22:32:47.000Z</time></trkpt>
        <trkpt lat="28.6035632" lon="105.4752407"><ele>590.77</ele><time>2026-01-30T22:32:49.000Z</time></trkpt>
        <trkpt lat="28.6035611" lon="105.4751571"><ele>589.65</ele><time>2026-01-30T22:33:01.000Z</time></trkpt>
        <trkpt lat="28.6035058" lon="105.4750623"><ele>589.29</ele><time>2026-01-30T22:33:11.000Z</time></trkpt>
        <trkpt lat="28.6034149" lon="105.4749789"><ele>588.49</ele><time>2026-01-30T22:33:21.000Z</time></trkpt>
        <trkpt lat="28.6033173" lon="105.4749023"><ele>587.62</ele><time>2026-01-30T22:33:31.000Z</time></trkpt>
        <trkpt lat="28.6032436" lon="105.4748615"><ele>587</ele><time>2026-01-30T22:33:37.000Z</time></trkpt>
        <trkpt lat="28.6031509" lon="105.4748247"><ele>586.49</ele><time>2026-01-30T22:33:49.000Z</time></trkpt>
        <trkpt lat="28.6030856" lon="105.4747397"><ele>584.92</ele><time>2026-01-30T22:33:59.000Z</time></trkpt>
        <trkpt lat="28.6030271" lon="105.4746389"><ele>583.87</ele><time>2026-01-30T22:34:11.000Z</time></trkpt>
        <trkpt lat="28.6029693" lon="105.4745858"><ele>582.93</ele><time>2026-01-30T22:34:21.000Z</time></trkpt>
        <trkpt lat="28.6030328" lon="105.4745959"><ele>582.66</ele><time>2026-01-30T22:34:39.000Z</time></trkpt>
        <trkpt lat="28.6030401" lon="105.47452"><ele>581.28</ele><time>2026-01-30T22:35:01.000Z</time></trkpt>
        <trkpt lat="28.6030521" lon="105.4744072"><ele>580.96</ele><time>2026-01-30T22:35:11.000Z</time></trkpt>
        <trkpt lat="28.6030126" lon="105.4743034"><ele>581.23</ele><time>2026-01-30T22:35:21.000Z</time></trkpt>
        <trkpt lat="28.6029411" lon="105.4742269"><ele>581.68</ele><time>2026-01-30T22:35:33.000Z</time></trkpt>
        <trkpt lat="28.6028793" lon="105.4741452"><ele>582.59</ele><time>2026-01-30T22:36:11.000Z</time></trkpt>
        <trkpt lat="28.6028353" lon="105.4740442"><ele>583.49</ele><time>2026-01-30T22:36:43.000Z</time></trkpt>
        <trkpt lat="28.6027681" lon="105.4739488"><ele>584.37</ele><time>2026-01-30T22:37:07.000Z</time></trkpt>
        <trkpt lat="28.6027334" lon="105.473846"><ele>585.56</ele><time>2026-01-30T22:37:17.000Z</time></trkpt>
        <trkpt lat="28.6026983" lon="105.4737333"><ele>587.67</ele><time>2026-01-30T22:37:29.000Z</time></trkpt>
        <trkpt lat="28.6026518" lon="105.4736338"><ele>589.71</ele><time>2026-01-30T22:37:41.000Z</time></trkpt>
        <trkpt lat="28.6026107" lon="105.4735302"><ele>590.93</ele><time>2026-01-30T22:38:07.000Z</time></trkpt>
        <trkpt lat="28.6026114" lon="105.473423"><ele>591</ele><time>2026-01-30T22:38:17.000Z</time></trkpt>
        <trkpt lat="28.6026323" lon="105.4733106"><ele>590.96</ele><time>2026-01-30T22:38:42.000Z</time></trkpt>
        <trkpt lat="28.6026447" lon="105.4731976"><ele>591.68</ele><time>2026-01-30T22:39:37.000Z</time></trkpt>
        <trkpt lat="28.602668" lon="105.4731309"><ele>594.05</ele><time>2026-01-30T22:39:45.000Z</time></trkpt>
        <trkpt lat="28.6027133" lon="105.4730531"><ele>596.14</ele><time>2026-01-30T22:39:59.000Z</time></trkpt>
        <trkpt lat="28.6027474" lon="105.4729526"><ele>597.61</ele><time>2026-01-30T22:40:09.000Z</time></trkpt>
        <trkpt lat="28.602772" lon="105.4728376"><ele>599.06</ele><time>2026-01-30T22:40:21.000Z</time></trkpt>
        <trkpt lat="28.6028223" lon="105.4727343"><ele>599.97</ele><time>2026-01-30T22:40:35.000Z</time></trkpt>
        <trkpt lat="28.6028425" lon="105.472618"><ele>603.17</ele><time>2026-01-30T22:40:49.000Z</time></trkpt>
        <trkpt lat="28.6028689" lon="105.4725066"><ele>604.82</ele><time>2026-01-30T22:40:59.000Z</time></trkpt>
        <trkpt lat="28.6028965" lon="105.4724242"><ele>604.96</ele><time>2026-01-30T22:41:09.000Z</time></trkpt>
        <trkpt lat="28.6029418" lon="105.4723277"><ele>604.27</ele><time>2026-01-30T22:41:47.000Z</time></trkpt>
        <trkpt lat="28.6029929" lon="105.4722307"><ele>605.19</ele><time>2026-01-30T22:41:57.000Z</time></trkpt>
        <trkpt lat="28.6030661" lon="105.4721471"><ele>605.53</ele><time>2026-01-30T22:42:07.000Z</time></trkpt>
        <trkpt lat="28.6031196" lon="105.4720869"><ele>605.38</ele><time>2026-01-30T22:42:17.000Z</time></trkpt>
        <trkpt lat="28.6031772" lon="105.4720118"><ele>605.32</ele><time>2026-01-30T22:42:29.000Z</time></trkpt>
        <trkpt lat="28.6032058" lon="105.4719073"><ele>605.09</ele><time>2026-01-30T22:42:53.000Z</time></trkpt>
        <trkpt lat="28.6032474" lon="105.4718119"><ele>604.84</ele><time>2026-01-30T22:43:03.000Z</time></trkpt>
        <trkpt lat="28.6033227" lon="105.4717436"><ele>604.74</ele><time>2026-01-30T22:43:13.000Z</time></trkpt>
        <trkpt lat="28.6034042" lon="105.4716802"><ele>604.48</ele><time>2026-01-30T22:43:23.000Z</time></trkpt>
        <trkpt lat="28.6035111" lon="105.471712"><ele>604.76</ele><time>2026-01-30T22:44:29.000Z</time></trkpt>
        <trkpt lat="28.6036027" lon="105.471692"><ele>604.06</ele><time>2026-01-30T22:44:37.000Z</time></trkpt>
        <trkpt lat="28.6036916" lon="105.471665"><ele>603.99</ele><time>2026-01-30T22:44:45.000Z</time></trkpt>
        <trkpt lat="28.6037753" lon="105.4716247"><ele>603.78</ele><time>2026-01-30T22:44:53.000Z</time></trkpt>
        <trkpt lat="28.6038498" lon="105.4716196"><ele>604.57</ele><time>2026-01-30T22:45:03.000Z</time></trkpt>
        <trkpt lat="28.6039445" lon="105.4715969"><ele>605.32</ele><time>2026-01-30T22:45:15.000Z</time></trkpt>
        <trkpt lat="28.6040445" lon="105.4715746"><ele>605.8</ele><time>2026-01-30T22:45:25.000Z</time></trkpt>
        <trkpt lat="28.6041417" lon="105.4715696"><ele>605.57</ele><time>2026-01-30T22:45:35.000Z</time></trkpt>
        <trkpt lat="28.6042376" lon="105.4715823"><ele>604.56</ele><time>2026-01-30T22:45:45.000Z</time></trkpt>
        <trkpt lat="28.6043373" lon="105.4716196"><ele>602.92</ele><time>2026-01-30T22:45:55.000Z</time></trkpt>
        <trkpt lat="28.6044195" lon="105.4716771"><ele>600.53</ele><time>2026-01-30T22:46:05.000Z</time></trkpt>
        <trkpt lat="28.6045138" lon="105.4716986"><ele>598.67</ele><time>2026-01-30T22:46:15.000Z</time></trkpt>
        <trkpt lat="28.6046009" lon="105.4716427"><ele>597.08</ele><time>2026-01-30T22:46:25.000Z</time></trkpt>
        <trkpt lat="28.6046645" lon="105.4715475"><ele>595.1</ele><time>2026-01-30T22:46:35.000Z</time></trkpt>
        <trkpt lat="28.6047215" lon="105.4714442"><ele>592.97</ele><time>2026-01-30T22:46:47.000Z</time></trkpt>
        <trkpt lat="28.6047158" lon="105.4713311"><ele>590.95</ele><time>2026-01-30T22:47:01.000Z</time></trkpt>
        <trkpt lat="28.6046434" lon="105.4712588"><ele>589.56</ele><time>2026-01-30T22:47:17.000Z</time></trkpt>
        <trkpt lat="28.6045532" lon="105.4712051"><ele>587.64</ele><time>2026-01-30T22:47:25.000Z</time></trkpt>
        <trkpt lat="28.6044543" lon="105.4711432"><ele>586.27</ele><time>2026-01-30T22:47:35.000Z</time></trkpt>
        <trkpt lat="28.6043585" lon="105.4710874"><ele>586.51</ele><time>2026-01-30T22:47:47.000Z</time></trkpt>
        <trkpt lat="28.6042555" lon="105.4710419"><ele>586.5</ele><time>2026-01-30T22:47:59.000Z</time></trkpt>
        <trkpt lat="28.6041677" lon="105.4709858"><ele>586.15</ele><time>2026-01-30T22:48:07.000Z</time></trkpt>
        <trkpt lat="28.6041007" lon="105.4709089"><ele>585.79</ele><time>2026-01-30T22:48:15.000Z</time></trkpt>
        <trkpt lat="28.6040474" lon="105.4708195"><ele>584.99</ele><time>2026-01-30T22:48:23.000Z</time></trkpt>
        <trkpt lat="28.6040102" lon="105.4707196"><ele>583.72</ele><time>2026-01-30T22:48:31.000Z</time></trkpt>
        <trkpt lat="28.6040106" lon="105.4706"><ele>582.89</ele><time>2026-01-30T22:48:41.000Z</time></trkpt>
        <trkpt lat="28.6040599" lon="105.4704943"><ele>581.8</ele><time>2026-01-30T22:48:51.000Z</time></trkpt>
        <trkpt lat="28.6041528" lon="105.4704693"><ele>581.18</ele><time>2026-01-30T22:49:01.000Z</time></trkpt>
        <trkpt lat="28.6042613" lon="105.470481"><ele>580.86</ele><time>2026-01-30T22:49:11.000Z</time></trkpt>
        <trkpt lat="28.6043597" lon="105.4705195"><ele>581.95</ele><time>2026-01-30T22:49:39.000Z</time></trkpt>
        <trkpt lat="28.6044576" lon="105.4705236"><ele>582.71</ele><time>2026-01-30T22:49:47.000Z</time></trkpt>
        <trkpt lat="28.6045536" lon="105.4705048"><ele>582.63</ele><time>2026-01-30T22:49:55.000Z</time></trkpt>
        <trkpt lat="28.604624" lon="105.4704232"><ele>582.58</ele><time>2026-01-30T22:50:05.000Z</time></trkpt>
        <trkpt lat="28.6046164" lon="105.4703105"><ele>582.55</ele><time>2026-01-30T22:50:15.000Z</time></trkpt>
        <trkpt lat="28.6045792" lon="105.4701985"><ele>582.31</ele><time>2026-01-30T22:50:25.000Z</time></trkpt>
        <trkpt lat="28.6045217" lon="105.4700955"><ele>582.12</ele><time>2026-01-30T22:50:35.000Z</time></trkpt>
        <trkpt lat="28.604467" lon="105.4699875"><ele>581.81</ele><time>2026-01-30T22:50:45.000Z</time></trkpt>
        <trkpt lat="28.6044176" lon="105.4698851"><ele>581.5</ele><time>2026-01-30T22:50:55.000Z</time></trkpt>
        <trkpt lat="28.6043855" lon="105.4698328"><ele>581.19</ele><time>2026-01-30T22:51:01.000Z</time></trkpt>
        <trkpt lat="28.6043792" lon="105.4697472"><ele>580.87</ele><time>2026-01-30T22:51:13.000Z</time></trkpt>
        <trkpt lat="28.6043998" lon="105.4696889"><ele>580.52</ele><time>2026-01-30T22:51:19.000Z</time></trkpt>
        <trkpt lat="28.6043812" lon="105.4696011"><ele>580.51</ele><time>2026-01-30T22:51:47.000Z</time></trkpt>
        <trkpt lat="28.6044353" lon="105.4695286"><ele>579.08</ele><time>2026-01-30T22:51:59.000Z</time></trkpt>
        <trkpt lat="28.604509" lon="105.4695601"><ele>577.81</ele><time>2026-01-30T22:52:21.000Z</time></trkpt>
        <trkpt lat="28.6045946" lon="105.4696327"><ele>575.92</ele><time>2026-01-30T22:52:39.000Z</time></trkpt>
        <trkpt lat="28.6046867" lon="105.4696861"><ele>575.3</ele><time>2026-01-30T22:52:49.000Z</time></trkpt>
        <trkpt lat="28.604766" lon="105.4697658"><ele>575.7</ele><time>2026-01-30T22:53:07.000Z</time></trkpt>
        <trkpt lat="28.604869" lon="105.4698191"><ele>577.42</ele><time>2026-01-30T22:53:13.000Z</time></trkpt>
        <trkpt lat="28.6048939" lon="105.4698349"><ele>580.54</ele><time>2026-01-30T22:53:15.000Z</time></trkpt>
        <trkpt lat="28.6049373" lon="105.4699056"><ele>582.13</ele><time>2026-01-30T22:53:27.000Z</time></trkpt>
        <trkpt lat="28.6049957" lon="105.469992"><ele>583.31</ele><time>2026-01-30T22:53:39.000Z</time></trkpt>
        <trkpt lat="28.6050026" lon="105.4700145"><ele>583.77</ele><time>2026-01-30T22:53:43.000Z</time></trkpt>
        <trkpt lat="28.6050515" lon="105.4700693"><ele>583.92</ele><time>2026-01-30T22:54:17.000Z</time></trkpt>
        <trkpt lat="28.6051188" lon="105.4701325"><ele>582.93</ele><time>2026-01-30T22:54:31.000Z</time></trkpt>
        <trkpt lat="28.6052057" lon="105.4701664"><ele>582.13</ele><time>2026-01-30T22:54:41.000Z</time></trkpt>
        <trkpt lat="28.6052979" lon="105.4702095"><ele>581.56</ele><time>2026-01-30T22:54:51.000Z</time></trkpt>
        <trkpt lat="28.6053321" lon="105.4702977"><ele>580.82</ele><time>2026-01-30T22:54:59.000Z</time></trkpt>
        <trkpt lat="28.6053645" lon="105.4703782"><ele>580.51</ele><time>2026-01-30T22:55:09.000Z</time></trkpt>
        <trkpt lat="28.6054429" lon="105.4704258"><ele>580.56</ele><time>2026-01-30T22:55:29.000Z</time></trkpt>
        <trkpt lat="28.6055295" lon="105.4704677"><ele>580.13</ele><time>2026-01-30T22:55:41.000Z</time></trkpt>
        <trkpt lat="28.6056061" lon="105.4705307"><ele>579.33</ele><time>2026-01-30T22:55:53.000Z</time></trkpt>
        <trkpt lat="28.6056295" lon="105.4706335"><ele>578.57</ele><time>2026-01-30T22:56:05.000Z</time></trkpt>
        <trkpt lat="28.6056242" lon="105.4707437"><ele>578.44</ele><time>2026-01-30T22:56:17.000Z</time></trkpt>
        <trkpt lat="28.6056002" lon="105.4706989"><ele>578.01</ele><time>2026-01-30T22:56:41.000Z</time></trkpt>
        <trkpt lat="28.6055906" lon="105.4705827"><ele>577.25</ele><time>2026-01-30T22:56:53.000Z</time></trkpt>
        <trkpt lat="28.605597" lon="105.4704587"><ele>576.9</ele><time>2026-01-30T22:57:05.000Z</time></trkpt>
        <trkpt lat="28.6056561" lon="105.4703724"><ele>576.61</ele><time>2026-01-30T22:57:17.000Z</time></trkpt>
        <trkpt lat="28.6057444" lon="105.4703057"><ele>576.81</ele><time>2026-01-30T22:57:37.000Z</time></trkpt>
        <trkpt lat="28.6058414" lon="105.4702512"><ele>577.32</ele><time>2026-01-30T22:57:51.000Z</time></trkpt>
        <trkpt lat="28.6059403" lon="105.4702083"><ele>576.62</ele><time>2026-01-30T22:58:01.000Z</time></trkpt>
        <trkpt lat="28.6060047" lon="105.4701352"><ele>575.17</ele><time>2026-01-30T22:58:39.000Z</time></trkpt>
        <trkpt lat="28.606084" lon="105.4700702"><ele>573.31</ele><time>2026-01-30T22:59:01.000Z</time></trkpt>
        <trkpt lat="28.6061067" lon="105.4700497"><ele>571.22</ele><time>2026-01-30T22:59:04.000Z</time></trkpt>
        <trkpt lat="28.6061295" lon="105.4699764"><ele>570.08</ele><time>2026-01-30T22:59:19.000Z</time></trkpt>
        <trkpt lat="28.6061414" lon="105.4699391"><ele>568.9</ele><time>2026-01-30T22:59:23.000Z</time></trkpt>
        <trkpt lat="28.6060969" lon="105.4698688"><ele>568.55</ele><time>2026-01-30T22:59:55.000Z</time></trkpt>
        <trkpt lat="28.6060624" lon="105.4697684"><ele>565.78</ele><time>2026-01-30T23:00:17.000Z</time></trkpt>
        <trkpt lat="28.6060427" lon="105.4696526"><ele>561.57</ele><time>2026-01-30T23:00:53.000Z</time></trkpt>
        <trkpt lat="28.6060991" lon="105.4696556"><ele>556.53</ele><time>2026-01-30T23:01:05.000Z</time></trkpt>
        <trkpt lat="28.6061781" lon="105.4697188"><ele>552.46</ele><time>2026-01-30T23:01:25.000Z</time></trkpt>
        <trkpt lat="28.6062763" lon="105.4697688"><ele>548</ele><time>2026-01-30T23:01:53.000Z</time></trkpt>
        <trkpt lat="28.6062966" lon="105.4697048"><ele>544.65</ele><time>2026-01-30T23:02:31.000Z</time></trkpt>
        <trkpt lat="28.6062927" lon="105.4695937"><ele>539.56</ele><time>2026-01-30T23:02:47.000Z</time></trkpt>
        <trkpt lat="28.6062501" lon="105.4694808"><ele>536.96</ele><time>2026-01-30T23:03:09.000Z</time></trkpt>
        <trkpt lat="28.6062034" lon="105.4693704"><ele>534.18</ele><time>2026-01-30T23:03:23.000Z</time></trkpt>
        <trkpt lat="28.6062486" lon="105.4693782"><ele>531.91</ele><time>2026-01-30T23:03:33.000Z</time></trkpt>
        <trkpt lat="28.6063348" lon="105.4694169"><ele>531.01</ele><time>2026-01-30T23:03:45.000Z</time></trkpt>
        <trkpt lat="28.606433" lon="105.4694788"><ele>531.71</ele><time>2026-01-30T23:03:55.000Z</time></trkpt>
        <trkpt lat="28.6065293" lon="105.4695528"><ele>533.54</ele><time>2026-01-30T23:04:07.000Z</time></trkpt>
        <trkpt lat="28.6066304" lon="105.4695949"><ele>534.12</ele><time>2026-01-30T23:04:19.000Z</time></trkpt>
        <trkpt lat="28.6067069" lon="105.4696616"><ele>533.52</ele><time>2026-01-30T23:04:33.000Z</time></trkpt>
        <trkpt lat="28.6067904" lon="105.4697037"><ele>532.66</ele><time>2026-01-30T23:04:45.000Z</time></trkpt>
        <trkpt lat="28.6068681" lon="105.4697576"><ele>531.45</ele><time>2026-01-30T23:04:57.000Z</time></trkpt>
        <trkpt lat="28.6069277" lon="105.4698355"><ele>530.53</ele><time>2026-01-30T23:05:43.000Z</time></trkpt>
        <trkpt lat="28.6070071" lon="105.4698828"><ele>528.28</ele><time>2026-01-30T23:05:55.000Z</time></trkpt>
        <trkpt lat="28.6070758" lon="105.4699498"><ele>526.07</ele><time>2026-01-30T23:06:11.000Z</time></trkpt>
        <trkpt lat="28.6071249" lon="105.4700496"><ele>524.04</ele><time>2026-01-30T23:07:29.000Z</time></trkpt>
        <trkpt lat="28.6072106" lon="105.4700906"><ele>521.86</ele><time>2026-01-30T23:07:51.000Z</time></trkpt>
        <trkpt lat="28.6073145" lon="105.4700839"><ele>519.07</ele><time>2026-01-30T23:08:09.000Z</time></trkpt>
        <trkpt lat="28.6074122" lon="105.4701044"><ele>515.99</ele><time>2026-01-30T23:08:29.000Z</time></trkpt>
        <trkpt lat="28.6075133" lon="105.4701116"><ele>513.39</ele><time>2026-01-30T23:08:53.000Z</time></trkpt>
        <trkpt lat="28.6076119" lon="105.4700868"><ele>510.86</ele><time>2026-01-30T23:09:15.000Z</time></trkpt>
        <trkpt lat="28.6076686" lon="105.4700687"><ele>508.91</ele><time>2026-01-30T23:09:21.000Z</time></trkpt>
        <trkpt lat="28.6077577" lon="105.4700312"><ele>507.57</ele><time>2026-01-30T23:10:39.000Z</time></trkpt>
        <trkpt lat="28.6078278" lon="105.4699619"><ele>505.6</ele><time>2026-01-30T23:10:55.000Z</time></trkpt>
        <trkpt lat="28.6078734" lon="105.4698643"><ele>502.61</ele><time>2026-01-30T23:11:39.000Z</time></trkpt>
        <trkpt lat="28.6078823" lon="105.469748"><ele>498.39</ele><time>2026-01-30T23:11:55.000Z</time></trkpt>
        <trkpt lat="28.607894" lon="105.4696382"><ele>493.8</ele><time>2026-01-30T23:12:11.000Z</time></trkpt>
        <trkpt lat="28.6078935" lon="105.4695302"><ele>489.69</ele><time>2026-01-30T23:12:29.000Z</time></trkpt>
        <trkpt lat="28.6079536" lon="105.4695446"><ele>485.83</ele><time>2026-01-30T23:13:03.000Z</time></trkpt>
        <trkpt lat="28.6080272" lon="105.4696108"><ele>483.4</ele><time>2026-01-30T23:13:35.000Z</time></trkpt>
        <trkpt lat="28.6080833" lon="105.4695684"><ele>480.86</ele><time>2026-01-30T23:14:21.000Z</time></trkpt>
        <trkpt lat="28.608075" lon="105.4694777"><ele>477.22</ele><time>2026-01-30T23:14:37.000Z</time></trkpt>
        <trkpt lat="28.6080482" lon="105.4693645"><ele>473.28</ele><time>2026-01-30T23:15:07.000Z</time></trkpt>
        <trkpt lat="28.6080333" lon="105.4693295"><ele>469.76</ele><time>2026-01-30T23:15:09.000Z</time></trkpt>
        <trkpt lat="28.6080745" lon="105.4693856"><ele>467.71</ele><time>2026-01-30T23:15:29.000Z</time></trkpt>
        <trkpt lat="28.6081511" lon="105.4694577"><ele>464.6</ele><time>2026-01-30T23:15:47.000Z</time></trkpt>
        <trkpt lat="28.6082459" lon="105.469506"><ele>461.66</ele><time>2026-01-30T23:16:07.000Z</time></trkpt>
        <trkpt lat="28.6082456" lon="105.4694033"><ele>460.57</ele><time>2026-01-30T23:17:43.000Z</time></trkpt>
        <trkpt lat="28.6082242" lon="105.4692979"><ele>458.36</ele><time>2026-01-30T23:21:33.000Z</time></trkpt>
        <trkpt lat="28.6081678" lon="105.4691965"><ele>454.64</ele><time>2026-01-30T23:21:41.000Z</time></trkpt>
        <trkpt lat="28.6081451" lon="105.4690822"><ele>451.77</ele><time>2026-01-30T23:21:49.000Z</time></trkpt>
        <trkpt lat="28.6081759" lon="105.4689724"><ele>450.3</ele><time>2026-01-30T23:21:57.000Z</time></trkpt>
        <trkpt lat="28.608259" lon="105.4688991"><ele>450.81</ele><time>2026-01-30T23:22:07.000Z</time></trkpt>
        <trkpt lat="28.6083565" lon="105.4688563"><ele>451.34</ele><time>2026-01-30T23:22:17.000Z</time></trkpt>
        <trkpt lat="28.6084509" lon="105.4688156"><ele>451.12</ele><time>2026-01-30T23:22:29.000Z</time></trkpt>
        <trkpt lat="28.6085391" lon="105.4687686"><ele>450.74</ele><time>2026-01-30T23:22:39.000Z</time></trkpt>
        <trkpt lat="28.6085746" lon="105.4686741"><ele>450.33</ele><time>2026-01-30T23:22:51.000Z</time></trkpt>
        <trkpt lat="28.6085516" lon="105.4685675"><ele>449.11</ele><time>2026-01-30T23:23:01.000Z</time></trkpt>
        <trkpt lat="28.6085129" lon="105.4684545"><ele>447.59</ele><time>2026-01-30T23:23:11.000Z</time></trkpt>
        <trkpt lat="28.6084762" lon="105.468337"><ele>445.4</ele><time>2026-01-30T23:23:21.000Z</time></trkpt>
        <trkpt lat="28.6084622" lon="105.4682265"><ele>443.22</ele><time>2026-01-30T23:23:29.000Z</time></trkpt>
        <trkpt lat="28.6084847" lon="105.4681252"><ele>441.9</ele><time>2026-01-30T23:23:37.000Z</time></trkpt>
        <trkpt lat="28.6085554" lon="105.4680601"><ele>441.13</ele><time>2026-01-30T23:23:45.000Z</time></trkpt>
        <trkpt lat="28.6086563" lon="105.4680732"><ele>441.24</ele><time>2026-01-30T23:23:53.000Z</time></trkpt>
        <trkpt lat="28.6087562" lon="105.4681077"><ele>441.94</ele><time>2026-01-30T23:24:01.000Z</time></trkpt>
        <trkpt lat="28.608862" lon="105.4681532"><ele>442.4</ele><time>2026-01-30T23:24:11.000Z</time></trkpt>
        <trkpt lat="28.6089649" lon="105.4681946"><ele>442.89</ele><time>2026-01-30T23:24:21.000Z</time></trkpt>
        <trkpt lat="28.6090731" lon="105.4682073"><ele>442.66</ele><time>2026-01-30T23:24:31.000Z</time></trkpt>
        <trkpt lat="28.6091138" lon="105.4681774"><ele>442.86</ele><time>2026-01-30T23:24:39.000Z</time></trkpt>
        <trkpt lat="28.6091888" lon="105.4681675"><ele>440.53</ele><time>2026-01-30T23:27:53.000Z</time></trkpt>
        <trkpt lat="28.609285" lon="105.4680969"><ele>441.51</ele><time>2026-01-30T23:29:35.000Z</time></trkpt>
        <trkpt lat="28.6092706" lon="105.4680828"><ele>442.15</ele><time>2026-01-30T23:29:39.000Z</time></trkpt>
        <trkpt lat="28.6093659" lon="105.4680513"><ele>442.47</ele><time>2026-01-30T23:34:38.000Z</time></trkpt>
        <trkpt lat="28.6094344" lon="105.4679696"><ele>445.15</ele><time>2026-01-30T23:35:30.000Z</time></trkpt>
        <trkpt lat="28.6094795" lon="105.467869"><ele>446.07</ele><time>2026-01-30T23:35:40.000Z</time></trkpt>
        <trkpt lat="28.6094675" lon="105.4677505"><ele>446.96</ele><time>2026-01-30T23:35:50.000Z</time></trkpt>
        <trkpt lat="28.6093965" lon="105.4676572"><ele>447</ele><time>2026-01-30T23:35:58.000Z</time></trkpt>
        <trkpt lat="28.6093413" lon="105.4676424"><ele>447.29</ele><time>2026-01-30T23:36:20.000Z</time></trkpt>
        <trkpt lat="28.6092984" lon="105.4675729"><ele>449.07</ele><time>2026-01-30T23:37:40.000Z</time></trkpt>
        <trkpt lat="28.6092391" lon="105.4674919"><ele>449.01</ele><time>2026-01-30T23:37:46.000Z</time></trkpt>
        <trkpt lat="28.6091722" lon="105.4673658"><ele>449.73</ele><time>2026-01-30T23:37:52.000Z</time></trkpt>
        <trkpt lat="28.6091031" lon="105.4672762"><ele>450.54</ele><time>2026-01-30T23:37:58.000Z</time></trkpt>
        <trkpt lat="28.6090237" lon="105.4672007"><ele>451.03</ele><time>2026-01-30T23:38:06.000Z</time></trkpt>
        <trkpt lat="28.6089857" lon="105.4671"><ele>451.38</ele><time>2026-01-30T23:38:14.000Z</time></trkpt>
        <trkpt lat="28.6090248" lon="105.4670106"><ele>452.9</ele><time>2026-01-30T23:38:22.000Z</time></trkpt>
        <trkpt lat="28.6091006" lon="105.4669855"><ele>450.74</ele><time>2026-01-30T23:38:36.000Z</time></trkpt>
        <trkpt lat="28.6091787" lon="105.4669328"><ele>449.7</ele><time>2026-01-30T23:39:06.000Z</time></trkpt>
        <trkpt lat="28.6092741" lon="105.4669158"><ele>449.51</ele><time>2026-01-30T23:39:22.000Z</time></trkpt>
        <trkpt lat="28.6093322" lon="105.4668762"><ele>450.7</ele><time>2026-01-30T23:39:32.000Z</time></trkpt>
        <trkpt lat="28.609411" lon="105.4668215"><ele>451.34</ele><time>2026-01-30T23:39:50.000Z</time></trkpt>
        <trkpt lat="28.6094974" lon="105.4667849"><ele>452.9</ele><time>2026-01-30T23:39:58.000Z</time></trkpt>
        <trkpt lat="28.6096003" lon="105.4667905"><ele>453.01</ele><time>2026-01-30T23:40:12.000Z</time></trkpt>
        <trkpt lat="28.6096965" lon="105.4667936"><ele>453.3</ele><time>2026-01-30T23:40:20.000Z</time></trkpt>
        <trkpt lat="28.6097885" lon="105.46677"><ele>454.03</ele><time>2026-01-30T23:40:30.000Z</time></trkpt>
        <trkpt lat="28.6098241" lon="105.4666788"><ele>454.37</ele><time>2026-01-30T23:40:40.000Z</time></trkpt>
        <trkpt lat="28.6097709" lon="105.4666"><ele>454.15</ele><time>2026-01-30T23:40:50.000Z</time></trkpt>
        <trkpt lat="28.6097204" lon="105.4665007"><ele>454.08</ele><time>2026-01-30T23:40:58.000Z</time></trkpt>
        <trkpt lat="28.6096391" lon="105.4664295"><ele>454.65</ele><time>2026-01-30T23:41:08.000Z</time></trkpt>
        <trkpt lat="28.6095668" lon="105.4663532"><ele>454.44</ele><time>2026-01-30T23:41:18.000Z</time></trkpt>
        <trkpt lat="28.6094804" lon="105.4662765"><ele>452.96</ele><time>2026-01-30T23:41:30.000Z</time></trkpt>
        <trkpt lat="28.6094464" lon="105.4662289"><ele>450.82</ele><time>2026-01-30T23:41:36.000Z</time></trkpt>
        <trkpt lat="28.6093803" lon="105.4661625"><ele>449.11</ele><time>2026-01-30T23:41:58.000Z</time></trkpt>
        <trkpt lat="28.6093192" lon="105.4660691"><ele>447.59</ele><time>2026-01-30T23:42:08.000Z</time></trkpt>
        <trkpt lat="28.6092637" lon="105.4659768"><ele>446.82</ele><time>2026-01-30T23:42:18.000Z</time></trkpt>
        <trkpt lat="28.6091785" lon="105.4659215"><ele>444.9</ele><time>2026-01-30T23:42:26.000Z</time></trkpt>
        <trkpt lat="28.6090961" lon="105.4658439"><ele>442.82</ele><time>2026-01-30T23:42:36.000Z</time></trkpt>
        <trkpt lat="28.6090641" lon="105.4657441"><ele>440.99</ele><time>2026-01-30T23:42:44.000Z</time></trkpt>
        <trkpt lat="28.6090881" lon="105.4656367"><ele>440.05</ele><time>2026-01-30T23:42:52.000Z</time></trkpt>
        <trkpt lat="28.6091537" lon="105.4655485"><ele>439.13</ele><time>2026-01-30T23:43:00.000Z</time></trkpt>
        <trkpt lat="28.6092501" lon="105.4655002"><ele>438.51</ele><time>2026-01-30T23:43:10.000Z</time></trkpt>
        <trkpt lat="28.6093647" lon="105.4654802"><ele>438.34</ele><time>2026-01-30T23:43:22.000Z</time></trkpt>
        <trkpt lat="28.6094672" lon="105.465462"><ele>439.35</ele><time>2026-01-30T23:43:30.000Z</time></trkpt>
        <trkpt lat="28.6095599" lon="105.4654275"><ele>439.51</ele><time>2026-01-30T23:43:40.000Z</time></trkpt>
        <trkpt lat="28.6096619" lon="105.4654067"><ele>439.35</ele><time>2026-01-30T23:43:50.000Z</time></trkpt>
        <trkpt lat="28.6097628" lon="105.4653986"><ele>439.94</ele><time>2026-01-30T23:44:00.000Z</time></trkpt>
        <trkpt lat="28.6098624" lon="105.4653975"><ele>439.76</ele><time>2026-01-30T23:44:12.000Z</time></trkpt>
        <trkpt lat="28.6099623" lon="105.465373"><ele>439</ele><time>2026-01-30T23:44:30.000Z</time></trkpt>
        <trkpt lat="28.6100567" lon="105.4653493"><ele>437.58</ele><time>2026-01-30T23:44:40.000Z</time></trkpt>
        <trkpt lat="28.6101353" lon="105.4653285"><ele>435.91</ele><time>2026-01-30T23:44:52.000Z</time></trkpt>
        <trkpt lat="28.6100935" lon="105.4654364"><ele>434.14</ele><time>2026-01-30T23:47:48.000Z</time></trkpt>
        <trkpt lat="28.6100184" lon="105.4654999"><ele>431.4</ele><time>2026-01-30T23:48:10.000Z</time></trkpt>
        <trkpt lat="28.6100847" lon="105.4654525"><ele>429.82</ele><time>2026-01-30T23:48:48.000Z</time></trkpt>
        <trkpt lat="28.6101313" lon="105.4654081"><ele>429.37</ele><time>2026-01-30T23:48:56.000Z</time></trkpt>
        <trkpt lat="28.610078" lon="105.4654653"><ele>429.13</ele><time>2026-01-30T23:50:16.000Z</time></trkpt>
        <trkpt lat="28.610001" lon="105.4655325"><ele>428.86</ele><time>2026-01-30T23:50:26.000Z</time></trkpt>
        <trkpt lat="28.6099637" lon="105.4656305"><ele>427.62</ele><time>2026-01-30T23:50:40.000Z</time></trkpt>
        <trkpt lat="28.6099096" lon="105.4657179"><ele>426.63</ele><time>2026-01-30T23:51:06.000Z</time></trkpt>
        <trkpt lat="28.6098793" lon="105.4658162"><ele>425.33</ele><time>2026-01-30T23:51:18.000Z</time></trkpt>
        <trkpt lat="28.6099288" lon="105.4658907"><ele>423.83</ele><time>2026-01-30T23:51:34.000Z</time></trkpt>
        <trkpt lat="28.6100255" lon="105.4659059"><ele>421.96</ele><time>2026-01-30T23:51:58.000Z</time></trkpt>
        <trkpt lat="28.6101395" lon="105.4659185"><ele>420.45</ele><time>2026-01-30T23:52:12.000Z</time></trkpt>
        <trkpt lat="28.6102501" lon="105.4659207"><ele>419.55</ele><time>2026-01-30T23:52:24.000Z</time></trkpt>
        <trkpt lat="28.6103532" lon="105.46594"><ele>418.34</ele><time>2026-01-30T23:52:40.000Z</time></trkpt>
        <trkpt lat="28.6104373" lon="105.4659925"><ele>416.99</ele><time>2026-01-30T23:52:54.000Z</time></trkpt>
        <trkpt lat="28.6105023" lon="105.4660666"><ele>416.12</ele><time>2026-01-30T23:53:30.000Z</time></trkpt>
        <trkpt lat="28.6105838" lon="105.4660765"><ele>417.06</ele><time>2026-01-30T23:53:46.000Z</time></trkpt>
        <trkpt lat="28.6106769" lon="105.4660995"><ele>416.92</ele><time>2026-01-30T23:54:02.000Z</time></trkpt>
        <trkpt lat="28.6107696" lon="105.4661328"><ele>415.68</ele><time>2026-01-30T23:54:14.000Z</time></trkpt>
        <trkpt lat="28.6108651" lon="105.4661749"><ele>414.29</ele><time>2026-01-30T23:54:24.000Z</time></trkpt>
        <trkpt lat="28.6109552" lon="105.4662357"><ele>413.24</ele><time>2026-01-30T23:54:36.000Z</time></trkpt>
        <trkpt lat="28.6110052" lon="105.4663338"><ele>412.25</ele><time>2026-01-30T23:54:50.000Z</time></trkpt>
        <trkpt lat="28.6109813" lon="105.4664429"><ele>411.7</ele><time>2026-01-30T23:55:04.000Z</time></trkpt>
        <trkpt lat="28.6109156" lon="105.466534"><ele>411.44</ele><time>2026-01-30T23:55:18.000Z</time></trkpt>
        <trkpt lat="28.6109148" lon="105.4666314"><ele>412.39</ele><time>2026-01-30T23:55:36.000Z</time></trkpt>
        <trkpt lat="28.6109728" lon="105.4667061"><ele>410.85</ele><time>2026-01-30T23:55:48.000Z</time></trkpt>
        <trkpt lat="28.6110338" lon="105.4667882"><ele>409.27</ele><time>2026-01-30T23:56:00.000Z</time></trkpt>
        <trkpt lat="28.6110788" lon="105.4668805"><ele>407.95</ele><time>2026-01-30T23:56:12.000Z</time></trkpt>
        <trkpt lat="28.6111109" lon="105.4669845"><ele>406.67</ele><time>2026-01-30T23:56:24.000Z</time></trkpt>
        <trkpt lat="28.6111572" lon="105.4670854"><ele>404.94</ele><time>2026-01-30T23:57:04.000Z</time></trkpt>
        <trkpt lat="28.6111961" lon="105.467129"><ele>402.25</ele><time>2026-01-30T23:57:16.000Z</time></trkpt>
        <trkpt lat="28.6112082" lon="105.467216"><ele>400.39</ele><time>2026-01-30T23:57:46.000Z</time></trkpt>
        <trkpt lat="28.6112686" lon="105.4672784"><ele>397.87</ele><time>2026-01-30T23:58:44.000Z</time></trkpt>
        <trkpt lat="28.6112896" lon="105.4672908"><ele>395.02</ele><time>2026-01-30T23:58:48.000Z</time></trkpt>
        <trkpt lat="28.6113252" lon="105.4673705"><ele>393.2</ele><time>2026-01-30T23:59:34.000Z</time></trkpt>
        <trkpt lat="28.6114023" lon="105.4673888"><ele>391.81</ele><time>2026-01-30T23:59:46.000Z</time></trkpt>
        <trkpt lat="28.6114862" lon="105.4674331"><ele>392.29</ele><time>2026-01-31T00:00:04.000Z</time></trkpt>
        <trkpt lat="28.6115336" lon="105.4674552"><ele>393.57</ele><time>2026-01-31T00:00:12.000Z</time></trkpt>
        <trkpt lat="28.6116076" lon="105.4674134"><ele>394.33</ele><time>2026-01-31T00:00:32.000Z</time></trkpt>
        <trkpt lat="28.6116627" lon="105.4673224"><ele>395.35</ele><time>2026-01-31T00:01:12.000Z</time></trkpt>
        <trkpt lat="28.611712" lon="105.467211"><ele>396.16</ele><time>2026-01-31T00:01:32.000Z</time></trkpt>
        <trkpt lat="28.6117499" lon="105.4671044"><ele>395.99</ele><time>2026-01-31T00:01:42.000Z</time></trkpt>
        <trkpt lat="28.6118144" lon="105.467018"><ele>395.71</ele><time>2026-01-31T00:01:56.000Z</time></trkpt>
        <trkpt lat="28.6118805" lon="105.4669322"><ele>395.81</ele><time>2026-01-31T00:02:04.000Z</time></trkpt>
        <trkpt lat="28.611951" lon="105.466855"><ele>396.04</ele><time>2026-01-31T00:02:14.000Z</time></trkpt>
        <trkpt lat="28.6120202" lon="105.4667853"><ele>395.91</ele><time>2026-01-31T00:02:24.000Z</time></trkpt>
        <trkpt lat="28.6120805" lon="105.4666972"><ele>395.44</ele><time>2026-01-31T00:02:38.000Z</time></trkpt>
        <trkpt lat="28.6121437" lon="105.4666661"><ele>395.43</ele><time>2026-01-31T00:02:56.000Z</time></trkpt>
        <trkpt lat="28.6122227" lon="105.4667098"><ele>396.73</ele><time>2026-01-31T00:03:36.000Z</time></trkpt>
        <trkpt lat="28.6122709" lon="105.4668282"><ele>399.44</ele><time>2026-01-31T00:03:50.000Z</time></trkpt>
        <trkpt lat="28.6122286" lon="105.4669409"><ele>401.73</ele><time>2026-01-31T00:04:02.000Z</time></trkpt>
        <trkpt lat="28.6122199" lon="105.4670606"><ele>402.94</ele><time>2026-01-31T00:04:26.000Z</time></trkpt>
        <trkpt lat="28.6122947" lon="105.4671122"><ele>404.28</ele><time>2026-01-31T00:04:36.000Z</time></trkpt>
        <trkpt lat="28.6123368" lon="105.4671157"><ele>405.14</ele><time>2026-01-31T00:04:40.000Z</time></trkpt>
        <trkpt lat="28.6124089" lon="105.4671487"><ele>405.83</ele><time>2026-01-31T00:04:56.000Z</time></trkpt>
        <trkpt lat="28.6124293" lon="105.4671531"><ele>406.07</ele><time>2026-01-31T00:04:58.000Z</time></trkpt>
        <trkpt lat="28.6124814" lon="105.4670861"><ele>406.23</ele><time>2026-01-31T00:05:10.000Z</time></trkpt>
        <trkpt lat="28.6125019" lon="105.4669684"><ele>405.76</ele><time>2026-01-31T00:05:18.000Z</time></trkpt>
        <trkpt lat="28.6125002" lon="105.4668936"><ele>406.09</ele><time>2026-01-31T00:05:24.000Z</time></trkpt>
        <trkpt lat="28.6124246" lon="105.4668474"><ele>406.92</ele><time>2026-01-31T00:05:50.000Z</time></trkpt>
        <trkpt lat="28.6124464" lon="105.4668898"><ele>407.39</ele><time>2026-01-31T00:06:40.000Z</time></trkpt>
        <trkpt lat="28.6125125" lon="105.4669087"><ele>408.94</ele><time>2026-01-31T00:06:50.000Z</time></trkpt>
        <trkpt lat="28.6125203" lon="105.4668404"><ele>411.7</ele><time>2026-01-31T00:07:02.000Z</time></trkpt>
        <trkpt lat="28.6125154" lon="105.4667509"><ele>414.76</ele><time>2026-01-31T00:07:10.000Z</time></trkpt>
        <trkpt lat="28.6125566" lon="105.4667842"><ele>416.89</ele><time>2026-01-31T00:07:18.000Z</time></trkpt>
        <trkpt lat="28.6125423" lon="105.4667174"><ele>419.38</ele><time>2026-01-31T00:07:30.000Z</time></trkpt>
        <trkpt lat="28.6124716" lon="105.4666591"><ele>418.77</ele><time>2026-01-31T00:07:40.000Z</time></trkpt>
        <trkpt lat="28.6124923" lon="105.4667076"><ele>420.04</ele><time>2026-01-31T00:07:56.000Z</time></trkpt>
        <trkpt lat="28.6125377" lon="105.4668033"><ele>421.55</ele><time>2026-01-31T00:08:18.000Z</time></trkpt>
        <trkpt lat="28.6126298" lon="105.4668316"><ele>424.16</ele><time>2026-01-31T00:08:32.000Z</time></trkpt>
        <trkpt lat="28.6126403" lon="105.4667638"><ele>424.57</ele><time>2026-01-31T00:08:54.000Z</time></trkpt>
        <trkpt lat="28.6126452" lon="105.4666498"><ele>426.38</ele><time>2026-01-31T00:09:06.000Z</time></trkpt>
        <trkpt lat="28.6126314" lon="105.4665904"><ele>427.75</ele><time>2026-01-31T00:09:12.000Z</time></trkpt>
        <trkpt lat="28.6125876" lon="105.4664942"><ele>428.37</ele><time>2026-01-31T00:09:48.000Z</time></trkpt>
        <trkpt lat="28.6125782" lon="105.466389"><ele>427.72</ele><time>2026-01-31T00:09:54.000Z</time></trkpt>
        <trkpt lat="28.6125745" lon="105.4662804"><ele>426.44</ele><time>2026-01-31T00:10:02.000Z</time></trkpt>
        <trkpt lat="28.6125798" lon="105.4662288"><ele>424.43</ele><time>2026-01-31T00:10:08.000Z</time></trkpt>
        <trkpt lat="28.6125972" lon="105.466135"><ele>422.75</ele><time>2026-01-31T00:10:38.000Z</time></trkpt>
        <trkpt lat="28.61259" lon="105.4661953"><ele>420.37</ele><time>2026-01-31T00:11:04.000Z</time></trkpt>
        <trkpt lat="28.612591" lon="105.4662684"><ele>420.35</ele><time>2026-01-31T00:11:12.000Z</time></trkpt>
        <trkpt lat="28.6126019" lon="105.4662125"><ele>420.51</ele><time>2026-01-31T00:11:30.000Z</time></trkpt>
        <trkpt lat="28.6126804" lon="105.4661903"><ele>418.92</ele><time>2026-01-31T00:12:14.000Z</time></trkpt>
        <trkpt lat="28.6127744" lon="105.4661624"><ele>421.73</ele><time>2026-01-31T00:12:22.000Z</time></trkpt>
        <trkpt lat="28.6128407" lon="105.4662218"><ele>423.01</ele><time>2026-01-31T00:12:38.000Z</time></trkpt>
        <trkpt lat="28.6129202" lon="105.4663033"><ele>425.09</ele><time>2026-01-31T00:12:50.000Z</time></trkpt>
        <trkpt lat="28.6129932" lon="105.4663787"><ele>426.19</ele><time>2026-01-31T00:13:06.000Z</time></trkpt>
        <trkpt lat="28.6130668" lon="105.4664696"><ele>427.13</ele><time>2026-01-31T00:13:32.000Z</time></trkpt>
        <trkpt lat="28.613137" lon="105.4665499"><ele>428.79</ele><time>2026-01-31T00:13:46.000Z</time></trkpt>
        <trkpt lat="28.6131862" lon="105.4666384"><ele>431.23</ele><time>2026-01-31T00:14:08.000Z</time></trkpt>
        <trkpt lat="28.6132506" lon="105.466715"><ele>434.14</ele><time>2026-01-31T00:14:34.000Z</time></trkpt>
        <trkpt lat="28.613329" lon="105.4667667"><ele>435.41</ele><time>2026-01-31T00:14:48.000Z</time></trkpt>
        <trkpt lat="28.613426" lon="105.4667909"><ele>436.28</ele><time>2026-01-31T00:15:04.000Z</time></trkpt>
        <trkpt lat="28.6135263" lon="105.4668241"><ele>437.49</ele><time>2026-01-31T00:15:24.000Z</time></trkpt>
        <trkpt lat="28.6136053" lon="105.4668963"><ele>438.32</ele><time>2026-01-31T00:15:38.000Z</time></trkpt>
        <trkpt lat="28.6136843" lon="105.4669624"><ele>438.93</ele><time>2026-01-31T00:15:50.000Z</time></trkpt>
        <trkpt lat="28.6137044" lon="105.4669778"><ele>439.78</ele><time>2026-01-31T00:15:52.000Z</time></trkpt>
        <trkpt lat="28.613724" lon="105.4670639"><ele>439.9</ele><time>2026-01-31T00:17:46.000Z</time></trkpt>
        <trkpt lat="28.6137695" lon="105.4671563"><ele>441.09</ele><time>2026-01-31T00:18:06.000Z</time></trkpt>
        <trkpt lat="28.6138192" lon="105.4672469"><ele>442.02</ele><time>2026-01-31T00:18:36.000Z</time></trkpt>
        <trkpt lat="28.6139019" lon="105.4672701"><ele>443.13</ele><time>2026-01-31T00:18:50.000Z</time></trkpt>
        <trkpt lat="28.614" lon="105.4672682"><ele>445.73</ele><time>2026-01-31T00:19:06.000Z</time></trkpt>
        <trkpt lat="28.6141015" lon="105.4672631"><ele>448</ele><time>2026-01-31T00:19:22.000Z</time></trkpt>
        <trkpt lat="28.6141691" lon="105.4673295"><ele>449.67</ele><time>2026-01-31T00:19:50.000Z</time></trkpt>
        <trkpt lat="28.6142443" lon="105.4673863"><ele>451.62</ele><time>2026-01-31T00:20:02.000Z</time></trkpt>
        <trkpt lat="28.6143314" lon="105.467393"><ele>453.68</ele><time>2026-01-31T00:20:30.000Z</time></trkpt>
        <trkpt lat="28.6144245" lon="105.4673835"><ele>454.96</ele><time>2026-01-31T00:20:42.000Z</time></trkpt>
        <trkpt lat="28.6145134" lon="105.4674079"><ele>456.59</ele><time>2026-01-31T00:23:20.000Z</time></trkpt>
        <trkpt lat="28.6145126" lon="105.467406"><ele>454.97</ele><time>2026-01-31T00:23:22.000Z</time></trkpt>
        <trkpt lat="28.6144918" lon="105.467315"><ele>454.17</ele><time>2026-01-31T00:23:36.000Z</time></trkpt>
        <trkpt lat="28.6145018" lon="105.4672103"><ele>454.41</ele><time>2026-01-31T00:23:48.000Z</time></trkpt>
        <trkpt lat="28.6144972" lon="105.4671027"><ele>455.2</ele><time>2026-01-31T00:23:58.000Z</time></trkpt>
        <trkpt lat="28.6144613" lon="105.4669949"><ele>456.32</ele><time>2026-01-31T00:24:18.000Z</time></trkpt>
        <trkpt lat="28.6143955" lon="105.4669119"><ele>458.29</ele><time>2026-01-31T00:24:34.000Z</time></trkpt>
        <trkpt lat="28.614315" lon="105.4668245"><ele>459.12</ele><time>2026-01-31T00:25:40.000Z</time></trkpt>
        <trkpt lat="28.6142614" lon="105.4667332"><ele>460.07</ele><time>2026-01-31T00:25:50.000Z</time></trkpt>
        <trkpt lat="28.6142069" lon="105.4666428"><ele>460.55</ele><time>2026-01-31T00:26:00.000Z</time></trkpt>
        <trkpt lat="28.6141489" lon="105.4665435"><ele>461.56</ele><time>2026-01-31T00:26:10.000Z</time></trkpt>
        <trkpt lat="28.6141009" lon="105.4664401"><ele>461.2</ele><time>2026-01-31T00:26:20.000Z</time></trkpt>
        <trkpt lat="28.6140633" lon="105.466334"><ele>461.29</ele><time>2026-01-31T00:26:30.000Z</time></trkpt>
        <trkpt lat="28.6140222" lon="105.466247"><ele>461.3</ele><time>2026-01-31T00:26:40.000Z</time></trkpt>
        <trkpt lat="28.6140259" lon="105.466144"><ele>461.1</ele><time>2026-01-31T00:27:02.000Z</time></trkpt>
        <trkpt lat="28.6140996" lon="105.4660352"><ele>460.83</ele><time>2026-01-31T00:28:06.000Z</time></trkpt>
        <trkpt lat="28.6141558" lon="105.4659508"><ele>459.53</ele><time>2026-01-31T00:28:14.000Z</time></trkpt>
        <trkpt lat="28.6142271" lon="105.4658884"><ele>458.24</ele><time>2026-01-31T00:28:22.000Z</time></trkpt>
        <trkpt lat="28.6142968" lon="105.4658454"><ele>457.4</ele><time>2026-01-31T00:28:32.000Z</time></trkpt>
        <trkpt lat="28.6143922" lon="105.4658132"><ele>457.26</ele><time>2026-01-31T00:30:44.000Z</time></trkpt>
        <trkpt lat="28.6144279" lon="105.4658098"><ele>457.52</ele><time>2026-01-31T00:30:48.000Z</time></trkpt>
        <trkpt lat="28.6145238" lon="105.4658016"><ele>457.3</ele><time>2026-01-31T00:31:00.000Z</time></trkpt>
        <trkpt lat="28.6145603" lon="105.465768"><ele>456.07</ele><time>2026-01-31T00:31:06.000Z</time></trkpt>
        <trkpt lat="28.614637" lon="105.4657375"><ele>455.39</ele><time>2026-01-31T00:31:16.000Z</time></trkpt>
        <trkpt lat="28.6146489" lon="105.4657093"><ele>453.82</ele><time>2026-01-31T00:31:20.000Z</time></trkpt>
        <trkpt lat="28.6146749" lon="105.4656164"><ele>453.05</ele><time>2026-01-31T00:31:32.000Z</time></trkpt>
        <trkpt lat="28.6146679" lon="105.4654913"><ele>451.16</ele><time>2026-01-31T00:31:42.000Z</time></trkpt>
        <trkpt lat="28.6146401" lon="105.4653633"><ele>450.24</ele><time>2026-01-31T00:31:52.000Z</time></trkpt>
        <trkpt lat="28.6146069" lon="105.4652513"><ele>449.59</ele><time>2026-01-31T00:32:02.000Z</time></trkpt>
        <trkpt lat="28.6145924" lon="105.465145"><ele>450.25</ele><time>2026-01-31T00:32:12.000Z</time></trkpt>
        <trkpt lat="28.6145994" lon="105.4650372"><ele>450.69</ele><time>2026-01-31T00:32:22.000Z</time></trkpt>
        <trkpt lat="28.6145832" lon="105.4649274"><ele>450.35</ele><time>2026-01-31T00:32:32.000Z</time></trkpt>
        <trkpt lat="28.6145331" lon="105.4648407"><ele>449.94</ele><time>2026-01-31T00:32:40.000Z</time></trkpt>
        <trkpt lat="28.6144582" lon="105.4647725"><ele>449.41</ele><time>2026-01-31T00:32:48.000Z</time></trkpt>
        <trkpt lat="28.6143639" lon="105.4647163"><ele>448.69</ele><time>2026-01-31T00:32:58.000Z</time></trkpt>
        <trkpt lat="28.6142778" lon="105.4646589"><ele>448.28</ele><time>2026-01-31T00:33:06.000Z</time></trkpt>
        <trkpt lat="28.6141979" lon="105.4645772"><ele>447.25</ele><time>2026-01-31T00:33:16.000Z</time></trkpt>
        <trkpt lat="28.6141408" lon="105.4644769"><ele>446.12</ele><time>2026-01-31T00:33:26.000Z</time></trkpt>
        <trkpt lat="28.6141473" lon="105.4643652"><ele>444.97</ele><time>2026-01-31T00:33:36.000Z</time></trkpt>
        <trkpt lat="28.6142186" lon="105.4642883"><ele>443.61</ele><time>2026-01-31T00:33:46.000Z</time></trkpt>
        <trkpt lat="28.614307" lon="105.4642193"><ele>441.14</ele><time>2026-01-31T00:33:56.000Z</time></trkpt>
        <trkpt lat="28.6143495" lon="105.4642046"><ele>439.49</ele><time>2026-01-31T00:34:02.000Z</time></trkpt>
        <trkpt lat="28.6143788" lon="105.4641227"><ele>438.61</ele><time>2026-01-31T00:34:14.000Z</time></trkpt>
        <trkpt lat="28.6143778" lon="105.4640194"><ele>438.29</ele><time>2026-01-31T00:34:22.000Z</time></trkpt>
        <trkpt lat="28.6143735" lon="105.46391"><ele>438.38</ele><time>2026-01-31T00:34:30.000Z</time></trkpt>
        <trkpt lat="28.6143614" lon="105.4638006"><ele>438.11</ele><time>2026-01-31T00:34:40.000Z</time></trkpt>
        <trkpt lat="28.6143485" lon="105.4636875"><ele>437.21</ele><time>2026-01-31T00:34:50.000Z</time></trkpt>
        <trkpt lat="28.6143854" lon="105.4635937"><ele>436.3</ele><time>2026-01-31T00:35:00.000Z</time></trkpt>
        <trkpt lat="28.6144734" lon="105.4635508"><ele>434.57</ele><time>2026-01-31T00:35:12.000Z</time></trkpt>
        <trkpt lat="28.6145814" lon="105.4635752"><ele>433.42</ele><time>2026-01-31T00:35:22.000Z</time></trkpt>
        <trkpt lat="28.6146824" lon="105.4636024"><ele>431.58</ele><time>2026-01-31T00:35:30.000Z</time></trkpt>
        <trkpt lat="28.6147852" lon="105.4636256"><ele>429.81</ele><time>2026-01-31T00:35:40.000Z</time></trkpt>
        <trkpt lat="28.6148875" lon="105.4636392"><ele>427.78</ele><time>2026-01-31T00:35:50.000Z</time></trkpt>
        <trkpt lat="28.6149924" lon="105.4636211"><ele>425.23</ele><time>2026-01-31T00:36:02.000Z</time></trkpt>
        <trkpt lat="28.6150675" lon="105.4635444"><ele>422.75</ele><time>2026-01-31T00:36:12.000Z</time></trkpt>
        <trkpt lat="28.6150846" lon="105.4634288"><ele>421.03</ele><time>2026-01-31T00:36:22.000Z</time></trkpt>
        <trkpt lat="28.6150568" lon="105.4633098"><ele>419</ele><time>2026-01-31T00:36:34.000Z</time></trkpt>
        <trkpt lat="28.6150039" lon="105.46319"><ele>417.22</ele><time>2026-01-31T00:36:44.000Z</time></trkpt>
        <trkpt lat="28.6149276" lon="105.4630926"><ele>415.95</ele><time>2026-01-31T00:36:54.000Z</time></trkpt>
        <trkpt lat="28.614864" lon="105.4631885"><ele>415.18</ele><time>2026-01-31T00:44:50.000Z</time></trkpt>
        <trkpt lat="28.6148731" lon="105.4632117"><ele>414.2</ele><time>2026-01-31T00:44:52.000Z</time></trkpt>
        <trkpt lat="28.6148687" lon="105.4631048"><ele>413.82</ele><time>2026-01-31T00:50:14.000Z</time></trkpt>
        <trkpt lat="28.6148255" lon="105.4630095"><ele>414.97</ele><time>2026-01-31T00:50:22.000Z</time></trkpt>
        <trkpt lat="28.6146475" lon="105.4626395"><ele>414.99</ele><time>2026-01-31T00:50:30.000Z</time></trkpt>
        <trkpt lat="28.6145693" lon="105.4624691"><ele>413.83</ele><time>2026-01-31T00:50:32.000Z</time></trkpt>
        <trkpt lat="28.6145425" lon="105.4622972"><ele>413.28</ele><time>2026-01-31T00:50:36.000Z</time></trkpt>
        <trkpt lat="28.6145689" lon="105.4621788"><ele>412.38</ele><time>2026-01-31T00:50:38.000Z</time></trkpt>
        <trkpt lat="28.6146104" lon="105.4620845"><ele>411.12</ele><time>2026-01-31T00:50:40.000Z</time></trkpt>
        <trkpt lat="28.6146484" lon="105.4619847"><ele>409.99</ele><time>2026-01-31T00:50:42.000Z</time></trkpt>
        <trkpt lat="28.6146776" lon="105.4618788"><ele>408.95</ele><time>2026-01-31T00:50:44.000Z</time></trkpt>
        <trkpt lat="28.614699" lon="105.4617724"><ele>408.28</ele><time>2026-01-31T00:50:46.000Z</time></trkpt>
        <trkpt lat="28.6147263" lon="105.4616692"><ele>407.61</ele><time>2026-01-31T00:50:48.000Z</time></trkpt>
        <trkpt lat="28.6147743" lon="105.4615768"><ele>406.88</ele><time>2026-01-31T00:50:50.000Z</time></trkpt>
        <trkpt lat="28.6148372" lon="105.4614929"><ele>405.81</ele><time>2026-01-31T00:50:52.000Z</time></trkpt>
        <trkpt lat="28.6149021" lon="105.4614076"><ele>404.38</ele><time>2026-01-31T00:50:54.000Z</time></trkpt>
        <trkpt lat="28.61494" lon="105.4612592"><ele>402.79</ele><time>2026-01-31T00:50:58.000Z</time></trkpt>
        <trkpt lat="28.61488" lon="105.461123"><ele>401.19</ele><time>2026-01-31T00:51:02.000Z</time></trkpt>
        <trkpt lat="28.6147583" lon="105.4610166"><ele>400.1</ele><time>2026-01-31T00:51:06.000Z</time></trkpt>
        <trkpt lat="28.6146225" lon="105.4608771"><ele>399.15</ele><time>2026-01-31T00:51:10.000Z</time></trkpt>
        <trkpt lat="28.6145497" lon="105.4607607"><ele>397.37</ele><time>2026-01-31T00:51:12.000Z</time></trkpt>
        <trkpt lat="28.6145136" lon="105.4606579"><ele>395.85</ele><time>2026-01-31T00:51:14.000Z</time></trkpt>
        <trkpt lat="28.6144917" lon="105.4605077"><ele>394.43</ele><time>2026-01-31T00:51:18.000Z</time></trkpt>
        <trkpt lat="28.6145469" lon="105.4603895"><ele>393.55</ele><time>2026-01-31T00:51:22.000Z</time></trkpt>
        <trkpt lat="28.6146752" lon="105.4602663"><ele>392.84</ele><time>2026-01-31T00:51:26.000Z</time></trkpt>
        <trkpt lat="28.6147953" lon="105.4602022"><ele>391.64</ele><time>2026-01-31T00:51:28.000Z</time></trkpt>
        <trkpt lat="28.6148795" lon="105.460137"><ele>390.77</ele><time>2026-01-31T00:51:30.000Z</time></trkpt>
        <trkpt lat="28.6149208" lon="105.4600469"><ele>390.15</ele><time>2026-01-31T00:51:32.000Z</time></trkpt>
        <trkpt lat="28.6149132" lon="105.4599476"><ele>389.69</ele><time>2026-01-31T00:51:34.000Z</time></trkpt>
        <trkpt lat="28.6147947" lon="105.4598347"><ele>389.57</ele><time>2026-01-31T00:51:38.000Z</time></trkpt>
        <trkpt lat="28.6146814" lon="105.4597704"><ele>389.16</ele><time>2026-01-31T00:51:40.000Z</time></trkpt>
        <trkpt lat="28.6145808" lon="105.4597187"><ele>388.74</ele><time>2026-01-31T00:51:42.000Z</time></trkpt>
        <trkpt lat="28.6144977" lon="105.4596488"><ele>388.2</ele><time>2026-01-31T00:51:44.000Z</time></trkpt>
        <trkpt lat="28.6144362" lon="105.4595702"><ele>387.05</ele><time>2026-01-31T00:51:46.000Z</time></trkpt>
        <trkpt lat="28.6144018" lon="105.4594721"><ele>385.51</ele><time>2026-01-31T00:51:48.000Z</time></trkpt>
        <trkpt lat="28.6144097" lon="105.4593515"><ele>384.15</ele><time>2026-01-31T00:51:50.000Z</time></trkpt>
        <trkpt lat="28.6144354" lon="105.4592289"><ele>382.74</ele><time>2026-01-31T00:51:52.000Z</time></trkpt>
        <trkpt lat="28.6144539" lon="105.459107"><ele>381.76</ele><time>2026-01-31T00:51:54.000Z</time></trkpt>
        <trkpt lat="28.61443" lon="105.4589966"><ele>381.12</ele><time>2026-01-31T00:51:56.000Z</time></trkpt>
        <trkpt lat="28.6143898" lon="105.4588842"><ele>380.65</ele><time>2026-01-31T00:51:58.000Z</time></trkpt>
        <trkpt lat="28.6143788" lon="105.458776"><ele>380.58</ele><time>2026-01-31T00:52:00.000Z</time></trkpt>
        <trkpt lat="28.6144814" lon="105.4586402"><ele>379.94</ele><time>2026-01-31T00:52:04.000Z</time></trkpt>
        <trkpt lat="28.6145749" lon="105.4585521"><ele>379.58</ele><time>2026-01-31T00:52:06.000Z</time></trkpt>
        <trkpt lat="28.614633" lon="105.4583986"><ele>378.94</ele><time>2026-01-31T00:52:10.000Z</time></trkpt>
        <trkpt lat="28.6145623" lon="105.4582707"><ele>378.42</ele><time>2026-01-31T00:52:14.000Z</time></trkpt>
        <trkpt lat="28.6144057" lon="105.4582223"><ele>377.84</ele><time>2026-01-31T00:52:18.000Z</time></trkpt>
        <trkpt lat="28.6142815" lon="105.4581966"><ele>376.45</ele><time>2026-01-31T00:52:20.000Z</time></trkpt>
        <trkpt lat="28.614186" lon="105.4581471"><ele>374.89</ele><time>2026-01-31T00:52:22.000Z</time></trkpt>
        <trkpt lat="28.6141174" lon="105.4580509"><ele>373.4</ele><time>2026-01-31T00:52:24.000Z</time></trkpt>
        <trkpt lat="28.6140758" lon="105.4579241"><ele>371.46</ele><time>2026-01-31T00:52:26.000Z</time></trkpt>
        <trkpt lat="28.6140547" lon="105.4577954"><ele>370.01</ele><time>2026-01-31T00:52:28.000Z</time></trkpt>
        <trkpt lat="28.6140483" lon="105.4576632"><ele>368.68</ele><time>2026-01-31T00:52:30.000Z</time></trkpt>
        <trkpt lat="28.6140562" lon="105.4575241"><ele>367.57</ele><time>2026-01-31T00:52:32.000Z</time></trkpt>
        <trkpt lat="28.6140783" lon="105.4573889"><ele>366.76</ele><time>2026-01-31T00:52:34.000Z</time></trkpt>
        <trkpt lat="28.614102" lon="105.4572583"><ele>366.06</ele><time>2026-01-31T00:52:36.000Z</time></trkpt>
        <trkpt lat="28.6140982" lon="105.4571378"><ele>365.1</ele><time>2026-01-31T00:52:38.000Z</time></trkpt>
        <trkpt lat="28.6140472" lon="105.4570492"><ele>364.06</ele><time>2026-01-31T00:52:40.000Z</time></trkpt>
        <trkpt lat="28.6139582" lon="105.4569983"><ele>363.16</ele><time>2026-01-31T00:52:42.000Z</time></trkpt>
        <trkpt lat="28.6138445" lon="105.4569682"><ele>362.06</ele><time>2026-01-31T00:52:44.000Z</time></trkpt>
        <trkpt lat="28.6137287" lon="105.456934"><ele>360.7</ele><time>2026-01-31T00:52:46.000Z</time></trkpt>
        <trkpt lat="28.6136409" lon="105.4568647"><ele>359.5</ele><time>2026-01-31T00:52:48.000Z</time></trkpt>
        <trkpt lat="28.6135814" lon="105.4567354"><ele>358.27</ele><time>2026-01-31T00:52:50.000Z</time></trkpt>
        <trkpt lat="28.6135133" lon="105.4565738"><ele>356.83</ele><time>2026-01-31T00:52:52.000Z</time></trkpt>
        <trkpt lat="28.613427" lon="105.4564016"><ele>354.65</ele><time>2026-01-31T00:52:54.000Z</time></trkpt>
        <trkpt lat="28.6133451" lon="105.4562615"><ele>353.16</ele><time>2026-01-31T00:52:56.000Z</time></trkpt>
        <trkpt lat="28.6132602" lon="105.4561312"><ele>351</ele><time>2026-01-31T00:52:58.000Z</time></trkpt>
        <trkpt lat="28.6131773" lon="105.456028"><ele>348.97</ele><time>2026-01-31T00:53:00.000Z</time></trkpt>
        <trkpt lat="28.6130998" lon="105.4559413"><ele>346.9</ele><time>2026-01-31T00:53:02.000Z</time></trkpt>
        <trkpt lat="28.6130998" lon="105.4559413"><ele>346.9</ele><time>2026-01-31T00:53:03.000Z</time></trkpt>
      </trkseg>
  </trk>
</gpx>